Time,TemperatureF,DewpointF,PressureIn,WindDirection,WindDirectionDegrees,WindSpeedMPH,WindSpeedGustMPH,Humidity,HourlyPrecipIn,Conditions,Clouds,dailyrainin,SoftwareType,DateUTC
2013-01-16 00:01:00,66.1,63.1,30.07,ENE,58,1.0,1.0,90,0.00,,,0.00,Wunderground v.1.15,2013-01-16 05:01:00,
2013-01-16 00:02:00,66.0,63.0,30.07,ENE,58,1.0,1.0,90,0.00,,,0.00,Wunderground v.1.15,2013-01-16 05:02:00,
2013-01-16 00:03:00,66.0,63.0,30.07,ENE,58,1.0,1.0,90,0.00,,,0.00,Wunderground v.1.15,2013-01-16 05:03:00,
2013-01-16 00:06:00,66.0,63.0,30.07,ENE,58,1.0,1.0,90,0.00,,,0.00,Wunderground v.1.15,2013-01-16 05:06:00,
2013-01-16 00:07:00,65.9,62.9,30.07,ENE,58,1.0,1.0,90,0.00,,,0.00,Wunderground v.1.15,2013-01-16 05:07:00,
2013-01-16 00:12:00,65.8,62.8,30.07,ENE,71,1.0,1.0,90,0.00,,,0.00,Wunderground v.1.15,2013-01-16 05:12:00,
2013-01-16 00:17:00,65.8,62.8,30.07,ENE,70,1.0,2.0,90,0.00,,,0.00,Wunderground v.1.15,2013-01-16 05:17:00,
2013-01-16 00:18:00,65.8,62.8,30.07,ENE,72,2.0,2.0,90,0.00,,,0.00,Wunderground v.1.15,2013-01-16 05:18:00,
2013-01-16 00:19:00,65.8,62.8,30.07,ENE,72,2.0,2.0,90,0.00,,,0.00,Wunderground v.1.15,2013-01-16 05:19:00,
2013-01-16 00:22:00,65.8,62.8,30.07,ENE,72,1.0,1.0,90,0.00,,,0.00,Wunderground v.1.15,2013-01-16 05:22:00,
2013-01-16 00:24:00,65.8,62.8,30.07,ENE,72,2.0,2.0,90,0.00,,,0.00,Wunderground v.1.15,2013-01-16 05:24:00,
2013-01-16 00:27:00,65.8,62.8,30.07,ENE,72,1.0,2.0,90,0.00,,,0.00,Wunderground v.1.15,2013-01-16 05:27:00,
2013-01-16 00:29:00,65.9,62.9,30.07,ENE,72,2.0,2.0,90,0.00,,,0.00,Wunderground v.1.15,2013-01-16 05:29:00,
2013-01-16 00:32:00,65.9,62.9,30.07,ENE,69,2.0,2.0,90,0.00,,,0.00,Wunderground v.1.15,2013-01-16 05:32:00,
2013-01-16 00:34:00,66.0,63.0,30.07,ENE,72,1.0,2.0,90,0.00,,,0.00,Wunderground v.1.15,2013-01-16 05:34:00,
2013-01-16 00:37:00,66.0,63.0,30.07,East,82,1.0,2.0,90,0.00,,,0.00,Wunderground v.1.15,2013-01-16 05:37:00,
2013-01-16 00:38:00,66.1,63.1,30.07,East,82,1.0,2.0,90,0.00,,,0.00,Wunderground v.1.15,2013-01-16 05:38:00,
2013-01-16 00:39:00,66.1,63.1,30.07,East,82,1.0,2.0,90,0.00,,,0.00,Wunderground v.1.15,2013-01-16 05:39:00,
2013-01-16 00:43:00,66.2,63.2,30.07,ENE,78,1.0,1.0,90,0.00,,,0.00,Wunderground v.1.15,2013-01-16 05:43:00,
2013-01-16 00:44:00,66.2,63.2,30.07,ENE,77,0.0,1.0,90,0.00,,,0.00,Wunderground v.1.15,2013-01-16 05:44:00,
2013-01-16 00:46:00,66.3,63.3,30.07,ENE,77,1.0,1.0,90,0.00,,,0.00,Wunderground v.1.15,2013-01-16 05:46:00,
2013-01-16 00:48:00,66.3,63.3,30.07,ENE,78,0.0,1.0,90,0.00,,,0.00,Wunderground v.1.15,2013-01-16 05:48:00,
2013-01-16 00:49:00,66.3,63.3,30.07,ENE,77,0.0,1.0,90,0.00,,,0.00,Wunderground v.1.15,2013-01-16 05:49:00,
2013-01-16 00:51:00,66.3,63.3,30.07,ENE,78,1.0,1.0,90,0.00,,,0.00,Wunderground v.1.15,2013-01-16 05:51:00,
2013-01-16 00:52:00,66.3,63.3,30.07,ENE,78,0.0,1.0,90,0.00,,,0.00,Wunderground v.1.15,2013-01-16 05:52:00,
2013-01-16 00:54:00,66.2,63.2,30.07,ENE,78,0.0,1.0,90,0.00,,,0.00,Wunderground v.1.15,2013-01-16 05:54:00,
2013-01-16 00:59:00,66.0,63.0,30.07,East,93,2.0,2.0,90,0.00,,,0.00,Wunderground v.1.15,2013-01-16 05:59:00,
2013-01-16 01:01:00,66.0,63.0,30.07,East,90,2.0,3.0,90,0.00,,,0.00,Wunderground v.1.15,2013-01-16 06:01:00,
2013-01-16 01:02:00,66.0,63.0,30.07,East,85,1.0,3.0,90,0.00,,,0.00,Wunderground v.1.15,2013-01-16 06:02:00,
2013-01-16 01:07:00,66.0,63.0,30.07,East,79,2.0,3.0,90,0.00,,,0.00,Wunderground v.1.15,2013-01-16 06:07:00,
2013-01-16 01:09:00,66.0,63.0,30.07,ENE,75,2.0,3.0,90,0.00,,,0.00,Wunderground v.1.15,2013-01-16 06:09:00,
2013-01-16 01:10:00,66.0,63.0,30.07,ENE,74,2.0,2.0,90,0.00,,,0.00,Wunderground v.1.15,2013-01-16 06:10:00,
2013-01-16 01:11:00,66.0,63.0,30.07,ENE,70,2.0,2.0,90,0.00,,,0.00,Wunderground v.1.15,2013-01-16 06:11:00,
2013-01-16 01:12:00,66.0,63.0,30.07,ENE,72,1.0,2.0,90,0.00,,,0.00,Wunderground v.1.15,2013-01-16 06:12:00,
2013-01-16 01:14:00,66.0,63.0,30.07,ENE,72,1.0,2.0,90,0.00,,,0.00,Wunderground v.1.15,2013-01-16 06:14:00,
2013-01-16 01:17:00,66.0,63.0,30.07,ENE,68,1.0,2.0,90,0.00,,,0.00,Wunderground v.1.15,2013-01-16 06:17:00,
2013-01-16 01:20:00,66.0,63.0,30.07,ENE,75,2.0,2.0,90,0.00,,,0.00,Wunderground v.1.15,2013-01-16 06:20:00,
2013-01-16 01:22:00,66.0,63.0,30.07,ENE,75,2.0,2.0,90,0.00,,,0.00,Wunderground v.1.15,2013-01-16 06:22:00,
2013-01-16 01:24:00,66.0,63.0,30.07,ENE,75,1.0,2.0,90,0.00,,,0.00,Wunderground v.1.15,2013-01-16 06:24:00,
2013-01-16 01:26:00,66.0,63.0,30.07,ENE,75,1.0,2.0,90,0.00,,,0.00,Wunderground v.1.15,2013-01-16 06:26:00,
2013-01-16 01:27:00,66.0,63.0,30.07,ENE,75,2.0,2.0,90,0.00,,,0.00,Wunderground v.1.15,2013-01-16 06:27:00,
2013-01-16 01:29:00,66.0,63.3,30.07,ENE,72,2.0,2.0,91,0.00,,,0.00,Wunderground v.1.15,2013-01-16 06:29:00,
2013-01-16 01:34:00,66.0,63.3,30.07,East,86,2.0,3.0,91,0.00,,,0.00,Wunderground v.1.15,2013-01-16 06:34:00,
2013-01-16 01:35:00,66.0,63.3,30.07,East,86,2.0,3.0,91,0.00,,,0.00,Wunderground v.1.15,2013-01-16 06:35:00,
2013-01-16 01:36:00,66.0,63.3,30.07,East,79,2.0,3.0,91,0.00,,,0.00,Wunderground v.1.15,2013-01-16 06:36:00,
2013-01-16 01:39:00,65.9,63.2,30.07,East,82,2.0,3.0,91,0.00,,,0.00,Wunderground v.1.15,2013-01-16 06:39:00,
2013-01-16 01:41:00,65.9,63.2,30.07,East,94,1.0,2.0,91,0.00,,,0.00,Wunderground v.1.15,2013-01-16 06:41:00,
2013-01-16 01:42:00,65.9,63.2,30.07,East,98,1.0,2.0,91,0.00,,,0.00,Wunderground v.1.15,2013-01-16 06:42:00,
2013-01-16 01:44:00,66.0,63.3,30.07,East,82,1.0,2.0,91,0.00,,,0.00,Wunderground v.1.15,2013-01-16 06:44:00,
2013-01-16 01:45:00,66.0,63.3,30.07,East,85,2.0,2.0,91,0.00,,,0.00,Wunderground v.1.15,2013-01-16 06:45:00,
2013-01-16 01:47:00,66.0,63.3,30.07,East,97,2.0,2.0,91,0.00,,,0.00,Wunderground v.1.15,2013-01-16 06:47:00,
2013-01-16 01:49:00,66.0,63.3,30.07,East,100,1.0,2.0,91,0.00,,,0.00,Wunderground v.1.15,2013-01-16 06:49:00,
2013-01-16 01:51:00,66.0,63.3,30.07,East,89,2.0,2.0,91,0.00,,,0.00,Wunderground v.1.15,2013-01-16 06:51:00,
2013-01-16 01:53:00,66.1,63.4,30.06,East,93,0.0,2.0,91,0.00,,,0.00,Wunderground v.1.15,2013-01-16 06:53:00,
2013-01-16 01:56:00,66.1,63.4,30.07,East,100,0.0,2.0,91,0.00,,,0.00,Wunderground v.1.15,2013-01-16 06:56:00,
2013-01-16 01:58:00,66.1,63.4,30.06,East,101,1.0,2.0,91,0.00,,,0.00,Wunderground v.1.15,2013-01-16 06:58:00,
2013-01-16 01:59:00,66.0,63.3,30.06,East,100,1.0,2.0,91,0.00,,,0.00,Wunderground v.1.15,2013-01-16 06:59:00,
2013-01-16 02:01:00,66.0,63.3,30.06,East,101,1.0,1.0,91,0.00,,,0.00,Wunderground v.1.15,2013-01-16 07:01:00,
2013-01-16 02:03:00,66.1,63.7,30.06,East,82,1.0,1.0,92,0.00,,,0.00,Wunderground v.1.15,2013-01-16 07:03:00,
2013-01-16 02:04:00,66.1,63.7,30.06,East,82,1.0,1.0,92,0.00,,,0.00,Wunderground v.1.15,2013-01-16 07:04:00,
2013-01-16 02:06:00,66.2,63.8,30.06,East,79,1.0,2.0,92,0.00,,,0.00,Wunderground v.1.15,2013-01-16 07:06:00,
2013-01-16 02:08:00,66.2,63.8,30.06,East,86,2.0,2.0,92,0.00,,,0.00,Wunderground v.1.15,2013-01-16 07:08:00,
2013-01-16 02:09:00,66.2,63.8,30.06,East,89,2.0,2.0,92,0.00,,,0.00,Wunderground v.1.15,2013-01-16 07:09:00,
2013-01-16 02:11:00,66.2,63.8,30.06,East,95,3.0,3.0,92,0.00,,,0.00,Wunderground v.1.15,2013-01-16 07:11:00,
2013-01-16 02:13:00,66.2,63.8,30.06,East,87,2.0,3.0,92,0.00,,,0.00,Wunderground v.1.15,2013-01-16 07:13:00,
2013-01-16 02:14:00,66.2,63.8,30.06,ESE,102,1.0,3.0,92,0.00,,,0.00,Wunderground v.1.15,2013-01-16 07:14:00,
2013-01-16 02:17:00,66.2,63.8,30.06,East,91,2.0,3.0,92,0.00,,,0.00,Wunderground v.1.15,2013-01-16 07:17:00,
2013-01-16 02:18:00,66.2,63.8,30.06,East,91,2.0,3.0,92,0.00,,,0.00,Wunderground v.1.15,2013-01-16 07:18:00,
2013-01-16 02:19:00,66.2,63.8,30.06,East,91,2.0,3.0,92,0.00,,,0.00,Wunderground v.1.15,2013-01-16 07:19:00,
2013-01-16 02:22:00,66.2,63.8,30.06,ESE,109,1.0,3.0,92,0.00,,,0.00,Wunderground v.1.15,2013-01-16 07:22:00,
2013-01-16 02:23:00,66.2,63.8,30.06,ESE,103,1.0,4.0,92,0.00,,,0.00,Wunderground v.1.15,2013-01-16 07:23:00,
2013-01-16 02:24:00,66.2,63.8,30.06,East,95,2.0,4.0,92,0.00,,,0.00,Wunderground v.1.15,2013-01-16 07:24:00,
2013-01-16 02:27:00,66.2,63.8,30.06,East,86,2.0,4.0,92,0.00,,,0.00,Wunderground v.1.15,2013-01-16 07:27:00,
2013-01-16 02:28:00,66.2,63.8,30.06,East,85,2.0,5.0,92,0.00,,,0.00,Wunderground v.1.15,2013-01-16 07:28:00,
2013-01-16 02:29:00,66.2,63.8,30.06,East,89,3.0,5.0,92,0.00,,,0.00,Wunderground v.1.15,2013-01-16 07:29:00,
2013-01-16 02:32:00,66.2,63.8,30.06,East,91,2.0,2.0,92,0.00,,,0.00,Wunderground v.1.15,2013-01-16 07:32:00,
2013-01-16 02:33:00,66.2,63.8,30.06,ESE,121,0.0,2.0,92,0.00,,,0.00,Wunderground v.1.15,2013-01-16 07:33:00,
2013-01-16 02:34:00,66.2,63.8,30.06,East,91,3.0,4.0,92,0.00,,,0.00,Wunderground v.1.15,2013-01-16 07:34:00,
2013-01-16 02:37:00,66.2,63.8,30.06,ESE,105,4.0,4.0,92,0.00,,,0.00,Wunderground v.1.15,2013-01-16 07:37:00,
2013-01-16 02:38:00,66.3,63.9,30.06,East,86,3.0,5.0,92,0.00,,,0.00,Wunderground v.1.15,2013-01-16 07:38:00,
2013-01-16 02:39:00,66.3,63.9,30.06,ESE,105,2.0,5.0,92,0.00,,,0.00,Wunderground v.1.15,2013-01-16 07:39:00,
2013-01-16 02:42:00,66.4,64.3,30.06,East,96,2.0,6.0,93,0.00,,,0.00,Wunderground v.1.15,2013-01-16 07:42:00,
2013-01-16 02:43:00,66.4,64.3,30.06,ESE,115,2.0,6.0,93,0.00,,,0.00,Wunderground v.1.15,2013-01-16 07:43:00,
2013-01-16 02:44:00,66.4,64.3,30.06,SE,128,4.0,6.0,93,0.00,,,0.00,Wunderground v.1.15,2013-01-16 07:44:00,
2013-01-16 02:47:00,66.6,64.5,30.06,ESE,112,3.0,6.0,93,0.00,,,0.00,Wunderground v.1.15,2013-01-16 07:47:00,
2013-01-16 02:48:00,66.6,64.5,30.06,ESE,121,3.0,6.0,93,0.00,,,0.00,Wunderground v.1.15,2013-01-16 07:48:00,
2013-01-16 02:49:00,66.6,64.5,30.06,SE,125,3.0,6.0,93,0.00,,,0.00,Wunderground v.1.15,2013-01-16 07:49:00,
2013-01-16 02:52:00,66.6,64.5,30.06,ESE,117,2.0,4.0,93,0.00,,,0.00,Wunderground v.1.15,2013-01-16 07:52:00,
2013-01-16 02:53:00,66.6,64.5,30.06,ESE,113,1.0,4.0,93,0.00,,,0.00,Wunderground v.1.15,2013-01-16 07:53:00,
2013-01-16 02:54:00,66.7,64.6,30.06,ESE,111,2.0,4.0,93,0.00,,,0.00,Wunderground v.1.15,2013-01-16 07:54:00,
2013-01-16 02:58:00,66.6,64.5,30.06,East,94,3.0,4.0,93,0.00,,,0.00,Wunderground v.1.15,2013-01-16 07:58:00,
2013-01-16 02:59:00,66.7,64.6,30.06,SE,129,1.0,4.0,93,0.00,,,0.00,Wunderground v.1.15,2013-01-16 07:59:00,
2013-01-16 03:03:00,66.6,64.2,30.06,ESE,115,2.0,3.0,92,0.00,,,0.00,Wunderground v.1.15,2013-01-16 08:03:00,
2013-01-16 03:04:00,66.6,64.2,30.06,ESE,121,1.0,3.0,92,0.00,,,0.00,Wunderground v.1.15,2013-01-16 08:04:00,
2013-01-16 03:05:00,66.6,64.2,30.06,SE,127,2.0,3.0,92,0.00,,,0.00,Wunderground v.1.15,2013-01-16 08:05:00,
2013-01-16 03:08:00,66.5,64.1,30.06,ESE,115,3.0,3.0,92,0.00,,,0.00,Wunderground v.1.15,2013-01-16 08:08:00,
2013-01-16 03:09:00,66.5,64.1,30.06,ESE,121,2.0,3.0,92,0.00,,,0.00,Wunderground v.1.15,2013-01-16 08:09:00,
2013-01-16 03:10:00,66.5,64.4,30.06,ESE,121,4.0,4.0,93,0.00,,,0.00,Wunderground v.1.15,2013-01-16 08:10:00,
2013-01-16 03:14:00,66.4,64.3,30.06,SE,131,1.0,4.0,93,0.00,,,0.00,Wunderground v.1.15,2013-01-16 08:14:00,
2013-01-16 03:15:00,66.4,64.3,30.06,ESE,121,2.0,4.0,93,0.00,,,0.00,Wunderground v.1.15,2013-01-16 08:15:00,
2013-01-16 03:19:00,66.3,64.2,30.06,East,97,1.0,4.0,93,0.00,,,0.00,Wunderground v.1.15,2013-01-16 08:19:00,
2013-01-16 03:20:00,66.3,64.2,30.06,SE,134,1.0,2.0,93,0.00,,,0.00,Wunderground v.1.15,2013-01-16 08:20:00,
2013-01-16 03:24:00,66.3,64.2,30.06,SE,136,1.0,3.0,93,0.00,,,0.00,Wunderground v.1.15,2013-01-16 08:24:00,
2013-01-16 03:25:00,66.3,64.2,30.06,ESE,109,2.0,3.0,93,0.00,,,0.00,Wunderground v.1.15,2013-01-16 08:25:00,
2013-01-16 03:29:00,66.2,64.1,30.06,SE,131,2.0,3.0,93,0.00,,,0.00,Wunderground v.1.15,2013-01-16 08:29:00,
2013-01-16 03:30:00,66.2,64.1,30.06,SE,129,1.0,2.0,93,0.00,,,0.00,Wunderground v.1.15,2013-01-16 08:30:00,
2013-01-16 03:34:00,66.2,64.1,30.06,ESE,113,2.0,3.0,93,0.00,,,0.00,Wunderground v.1.15,2013-01-16 08:34:00,
2013-01-16 03:35:00,66.1,64.0,30.06,ESE,109,2.0,3.0,93,0.00,,,0.00,Wunderground v.1.15,2013-01-16 08:35:00,
2013-01-16 03:39:00,66.1,64.0,30.06,ESE,109,0.0,3.0,93,0.00,,,0.00,Wunderground v.1.15,2013-01-16 08:39:00,
2013-01-16 03:40:00,66.1,64.0,30.06,ESE,113,1.0,1.0,93,0.00,,,0.00,Wunderground v.1.15,2013-01-16 08:40:00,
2013-01-16 03:41:00,66.1,64.0,30.06,ESE,113,1.0,2.0,93,0.00,,,0.00,Wunderground v.1.15,2013-01-16 08:41:00,
2013-01-16 03:44:00,66.1,64.0,30.06,ESE,117,2.0,3.0,93,0.00,,,0.00,Wunderground v.1.15,2013-01-16 08:44:00,
2013-01-16 03:45:00,66.1,64.0,30.06,ESE,118,2.0,3.0,93,0.00,,,0.00,Wunderground v.1.15,2013-01-16 08:45:00,
2013-01-16 03:46:00,66.1,64.0,30.06,ESE,111,1.0,3.0,93,0.00,,,0.00,Wunderground v.1.15,2013-01-16 08:46:00,
2013-01-16 03:49:00,66.1,64.0,30.06,SE,125,1.0,3.0,93,0.00,,,0.00,Wunderground v.1.15,2013-01-16 08:49:00,
2013-01-16 03:50:00,66.0,63.9,30.06,ESE,118,2.0,2.0,93,0.00,,,0.00,Wunderground v.1.15,2013-01-16 08:50:00,
2013-01-16 03:51:00,66.0,63.9,30.06,ESE,121,1.0,2.0,93,0.00,,,0.00,Wunderground v.1.15,2013-01-16 08:51:00,
2013-01-16 03:54:00,66.0,63.9,30.06,ESE,104,2.0,3.0,93,0.00,,,0.00,Wunderground v.1.15,2013-01-16 08:54:00,
2013-01-16 03:55:00,65.9,63.8,30.06,ESE,113,2.0,3.0,93,0.00,,,0.00,Wunderground v.1.15,2013-01-16 08:55:00,
2013-01-16 03:56:00,65.9,63.8,30.06,ESE,105,2.0,3.0,93,0.00,,,0.00,Wunderground v.1.15,2013-01-16 08:56:00,
2013-01-16 03:59:00,65.9,63.8,30.06,ESE,118,2.0,3.0,93,0.00,,,0.00,Wunderground v.1.15,2013-01-16 08:59:00,
2013-01-16 04:00:00,65.9,63.8,30.06,SE,124,1.0,3.0,93,0.00,,,0.00,Wunderground v.1.15,2013-01-16 09:00:00,
2013-01-16 04:01:00,65.9,63.8,30.06,ESE,111,1.0,3.0,93,0.00,,,0.00,Wunderground v.1.15,2013-01-16 09:01:00,
2013-01-16 04:04:00,65.8,63.7,30.06,ESE,117,2.0,3.0,93,0.00,,,0.00,Wunderground v.1.15,2013-01-16 09:04:00,
2013-01-16 04:05:00,65.8,63.7,30.05,ESE,115,2.0,3.0,93,0.00,,,0.00,Wunderground v.1.15,2013-01-16 09:05:00,
2013-01-16 04:06:00,65.8,63.7,30.06,ESE,115,1.0,3.0,93,0.00,,,0.00,Wunderground v.1.15,2013-01-16 09:06:00,
2013-01-16 04:09:00,65.7,63.6,30.05,ESE,114,1.0,3.0,93,0.00,,,0.00,Wunderground v.1.15,2013-01-16 09:09:00,
2013-01-16 04:10:00,65.6,63.5,30.05,ESE,104,1.0,2.0,93,0.00,,,0.00,Wunderground v.1.15,2013-01-16 09:10:00,
2013-01-16 04:11:00,65.6,63.5,30.06,ESE,114,1.0,2.0,93,0.00,,,0.00,Wunderground v.1.15,2013-01-16 09:11:00,
2013-01-16 04:15:00,65.5,63.7,30.06,ESE,109,2.0,2.0,94,0.00,,,0.00,Wunderground v.1.15,2013-01-16 09:15:00,
2013-01-16 04:16:00,65.5,63.7,30.05,ESE,115,1.0,2.0,94,0.00,,,0.00,Wunderground v.1.15,2013-01-16 09:16:00,
2013-01-16 04:17:00,65.5,63.7,30.05,ESE,115,1.0,2.0,94,0.00,,,0.00,Wunderground v.1.15,2013-01-16 09:17:00,
2013-01-16 04:20:00,65.4,63.6,30.05,ESE,104,1.0,1.0,94,0.00,,,0.00,Wunderground v.1.15,2013-01-16 09:20:00,
2013-01-16 04:21:00,65.4,63.6,30.05,ESE,107,1.0,2.0,94,0.00,,,0.00,Wunderground v.1.15,2013-01-16 09:21:00,
2013-01-16 04:22:00,65.4,63.6,30.05,ESE,108,1.0,2.0,94,0.00,,,0.00,Wunderground v.1.15,2013-01-16 09:22:00,
2013-01-16 04:25:00,65.3,63.5,30.05,SE,126,0.0,2.0,94,0.00,,,0.00,Wunderground v.1.15,2013-01-16 09:25:00,
2013-01-16 04:26:00,65.3,63.5,30.05,SE,127,1.0,2.0,94,0.00,,,0.00,Wunderground v.1.15,2013-01-16 09:26:00,
2013-01-16 04:27:00,65.3,63.5,30.05,SE,127,1.0,2.0,94,0.00,,,0.00,Wunderground v.1.15,2013-01-16 09:27:00,
2013-01-16 04:30:00,65.2,63.4,30.05,SE,124,0.0,1.0,94,0.00,,,0.00,Wunderground v.1.15,2013-01-16 09:30:00,
2013-01-16 04:31:00,65.2,63.4,30.05,SE,124,1.0,1.0,94,0.00,,,0.00,Wunderground v.1.15,2013-01-16 09:31:00,
2013-01-16 04:32:00,65.2,63.4,30.05,SE,124,0.0,1.0,94,0.00,,,0.00,Wunderground v.1.15,2013-01-16 09:32:00,
2013-01-16 04:35:00,65.1,63.3,30.05,ESE,104,1.0,2.0,94,0.00,,,0.00,Wunderground v.1.15,2013-01-16 09:35:00,
2013-01-16 04:36:00,65.1,63.3,30.05,ESE,104,1.0,2.0,94,0.00,,,0.00,Wunderground v.1.15,2013-01-16 09:36:00,
2013-01-16 04:37:00,65.1,63.3,30.05,ESE,107,1.0,2.0,94,0.00,,,0.00,Wunderground v.1.15,2013-01-16 09:37:00,
2013-01-16 04:40:00,65.1,63.3,30.05,ESE,117,1.0,1.0,94,0.00,,,0.00,Wunderground v.1.15,2013-01-16 09:40:00,
2013-01-16 04:41:00,65.1,63.3,30.05,ESE,115,1.0,2.0,94,0.00,,,0.00,Wunderground v.1.15,2013-01-16 09:41:00,
2013-01-16 04:42:00,65.0,63.2,30.05,ESE,117,1.0,2.0,94,0.00,,,0.00,Wunderground v.1.15,2013-01-16 09:42:00,
2013-01-16 04:43:00,65.0,63.2,30.05,ESE,108,1.0,2.0,94,0.00,,,0.00,Wunderground v.1.15,2013-01-16 09:43:00,
2013-01-16 04:45:00,65.1,63.3,30.05,ESE,110,0.0,4.0,94,0.00,,,0.00,Wunderground v.1.15,2013-01-16 09:45:00,
2013-01-16 04:46:00,65.0,63.2,30.05,ESE,110,1.0,4.0,94,0.00,,,0.00,Wunderground v.1.15,2013-01-16 09:46:00,
2013-01-16 04:47:00,65.0,63.2,30.05,ESE,110,1.0,4.0,94,0.00,,,0.00,Wunderground v.1.15,2013-01-16 09:47:00,
2013-01-16 04:48:00,65.0,63.2,30.05,ESE,107,1.0,4.0,94,0.00,,,0.00,Wunderground v.1.15,2013-01-16 09:48:00,
2013-01-16 04:50:00,65.0,63.2,30.05,ESE,105,2.0,2.0,94,0.00,,,0.00,Wunderground v.1.15,2013-01-16 09:50:00,
2013-01-16 04:51:00,65.0,63.2,30.05,ESE,108,1.0,2.0,94,0.00,,,0.00,Wunderground v.1.15,2013-01-16 09:51:00,
2013-01-16 04:52:00,65.0,63.2,30.05,ESE,108,1.0,2.0,94,0.00,,,0.00,Wunderground v.1.15,2013-01-16 09:52:00,
2013-01-16 04:53:00,65.0,63.2,30.05,ESE,110,1.0,2.0,94,0.00,,,0.00,Wunderground v.1.15,2013-01-16 09:53:00,
2013-01-16 04:55:00,65.0,63.2,30.05,East,100,1.0,2.0,94,0.00,,,0.00,Wunderground v.1.15,2013-01-16 09:55:00,
2013-01-16 04:56:00,65.0,63.2,30.05,East,97,1.0,2.0,94,0.00,,,0.00,Wunderground v.1.15,2013-01-16 09:56:00,
2013-01-16 04:57:00,65.0,63.5,30.05,East,97,1.0,2.0,95,0.00,,,0.00,Wunderground v.1.15,2013-01-16 09:57:00,
2013-01-16 04:58:00,65.0,63.5,30.05,East,97,2.0,2.0,95,0.00,,,0.00,Wunderground v.1.15,2013-01-16 09:58:00,
2013-01-16 05:01:00,65.0,63.5,30.05,East,94,1.0,2.0,95,0.00,,,0.00,Wunderground v.1.15,2013-01-16 10:01:00,
2013-01-16 05:03:00,65.0,63.5,30.05,East,94,1.0,2.0,95,0.00,,,0.00,Wunderground v.1.15,2013-01-16 10:03:00,
2013-01-16 05:04:00,64.9,63.1,30.05,East,91,1.0,2.0,94,0.00,,,0.00,Wunderground v.1.15,2013-01-16 10:04:00,
2013-01-16 05:06:00,64.9,63.4,30.05,East,100,2.0,2.0,95,0.00,,,0.00,Wunderground v.1.15,2013-01-16 10:06:00,
2013-01-16 05:08:00,64.9,63.4,30.05,East,93,2.0,3.0,95,0.00,,,0.00,Wunderground v.1.15,2013-01-16 10:08:00,
2013-01-16 05:09:00,64.9,63.4,30.05,ESE,109,2.0,3.0,95,0.00,,,0.00,Wunderground v.1.15,2013-01-16 10:09:00,
2013-01-16 05:12:00,64.9,63.4,30.05,ESE,117,2.0,3.0,95,0.00,,,0.00,Wunderground v.1.15,2013-01-16 10:12:00,
2013-01-16 05:13:00,64.9,63.4,30.05,ESE,103,1.0,3.0,95,0.00,,,0.00,Wunderground v.1.15,2013-01-16 10:13:00,
2013-01-16 05:14:00,64.9,63.4,30.05,SE,124,2.0,3.0,95,0.00,,,0.00,Wunderground v.1.15,2013-01-16 10:14:00,
2013-01-16 05:17:00,64.9,63.4,30.06,ESE,112,0.0,3.0,95,0.00,,,0.00,Wunderground v.1.15,2013-01-16 10:17:00,
2013-01-16 05:18:00,64.9,63.4,30.06,ESE,111,1.0,3.0,95,0.00,,,0.00,Wunderground v.1.15,2013-01-16 10:18:00,
2013-01-16 05:19:00,64.9,63.4,30.06,ESE,111,0.0,3.0,95,0.00,,,0.00,Wunderground v.1.15,2013-01-16 10:19:00,
2013-01-16 05:22:00,64.9,63.4,30.06,ESE,105,1.0,1.0,95,0.00,,,0.00,Wunderground v.1.15,2013-01-16 10:22:00,
2013-01-16 05:23:00,64.9,63.4,30.06,ESE,105,1.0,1.0,95,0.00,,,0.00,Wunderground v.1.15,2013-01-16 10:23:00,
2013-01-16 05:24:00,64.9,63.4,30.05,ESE,108,2.0,2.0,95,0.00,,,0.00,Wunderground v.1.15,2013-01-16 10:24:00,
2013-01-16 05:27:00,64.9,63.4,30.06,ESE,115,1.0,2.0,95,0.00,,,0.00,Wunderground v.1.15,2013-01-16 10:27:00,
2013-01-16 05:29:00,64.9,63.4,30.06,ESE,104,1.0,2.0,95,0.00,,,0.00,Wunderground v.1.15,2013-01-16 10:29:00,
2013-01-16 05:32:00,64.9,63.4,30.06,ESE,102,1.0,2.0,95,0.00,,,0.00,Wunderground v.1.15,2013-01-16 10:32:00,
2013-01-16 05:34:00,64.8,63.3,30.06,ESE,105,1.0,2.0,95,0.00,,,0.00,Wunderground v.1.15,2013-01-16 10:34:00,
2013-01-16 05:37:00,64.8,63.3,30.06,East,100,1.0,2.0,95,0.00,,,0.00,Wunderground v.1.15,2013-01-16 10:37:00,
2013-01-16 05:39:00,64.8,63.3,30.06,ESE,105,2.0,2.0,95,0.00,,,0.00,Wunderground v.1.15,2013-01-16 10:39:00,
2013-01-16 05:42:00,64.8,63.3,30.06,ESE,111,2.0,2.0,95,0.00,,,0.00,Wunderground v.1.15,2013-01-16 10:42:00,
2013-01-16 05:43:00,64.8,63.3,30.06,ESE,111,1.0,2.0,95,0.00,,,0.00,Wunderground v.1.15,2013-01-16 10:43:00,
2013-01-16 05:44:00,64.8,63.3,30.06,ESE,114,2.0,3.0,95,0.00,,,0.00,Wunderground v.1.15,2013-01-16 10:44:00,
2013-01-16 05:45:00,64.8,63.3,30.06,ESE,115,2.0,3.0,95,0.00,,,0.00,Wunderground v.1.15,2013-01-16 10:45:00,
2013-01-16 05:47:00,64.7,63.2,30.06,ESE,115,1.0,3.0,95,0.00,,,0.00,Wunderground v.1.15,2013-01-16 10:47:00,
2013-01-16 05:48:00,64.7,63.2,30.06,ESE,108,2.0,3.0,95,0.00,,,0.00,Wunderground v.1.15,2013-01-16 10:48:00,
2013-01-16 05:49:00,64.7,63.2,30.06,ESE,115,2.0,3.0,95,0.00,,,0.00,Wunderground v.1.15,2013-01-16 10:49:00,
2013-01-16 05:50:00,64.7,63.2,30.06,ESE,121,2.0,2.0,95,0.00,,,0.00,Wunderground v.1.15,2013-01-16 10:50:00,
2013-01-16 05:52:00,64.7,63.2,30.06,ESE,112,1.0,3.0,95,0.00,,,0.00,Wunderground v.1.15,2013-01-16 10:52:00,
2013-01-16 05:53:00,64.7,63.2,30.06,ESE,120,2.0,3.0,95,0.00,,,0.00,Wunderground v.1.15,2013-01-16 10:53:00,
2013-01-16 05:54:00,64.7,63.2,30.06,ESE,119,1.0,3.0,95,0.00,,,0.00,Wunderground v.1.15,2013-01-16 10:54:00,
2013-01-16 05:55:00,64.7,63.2,30.06,ESE,117,2.0,3.0,95,0.00,,,0.00,Wunderground v.1.15,2013-01-16 10:55:00,
2013-01-16 05:58:00,64.6,63.1,30.06,ESE,107,1.0,3.0,95,0.00,,,0.00,Wunderground v.1.15,2013-01-16 10:58:00,
2013-01-16 06:00:00,64.6,63.1,30.06,ESE,109,1.0,2.0,95,0.00,,,0.00,Wunderground v.1.15,2013-01-16 11:00:00,
2013-01-16 06:03:00,64.6,63.1,30.06,ESE,109,2.0,3.0,95,0.00,,,0.00,Wunderground v.1.15,2013-01-16 11:03:00,
2013-01-16 06:05:00,64.6,63.1,30.06,ESE,113,2.0,3.0,95,0.00,,,0.00,Wunderground v.1.15,2013-01-16 11:05:00,
2013-01-16 06:06:00,64.6,63.1,30.06,East,91,1.0,3.0,95,0.00,,,0.00,Wunderground v.1.15,2013-01-16 11:06:00,
2013-01-16 06:08:00,64.5,63.0,30.06,SE,124,1.0,3.0,95,0.00,,,0.00,Wunderground v.1.15,2013-01-16 11:08:00,
2013-01-16 06:10:00,64.5,63.0,30.06,ESE,105,1.0,2.0,95,0.00,,,0.00,Wunderground v.1.15,2013-01-16 11:10:00,
2013-01-16 06:11:00,64.5,63.0,30.06,ESE,104,1.0,2.0,95,0.00,,,0.00,Wunderground v.1.15,2013-01-16 11:11:00,
2013-01-16 06:13:00,64.5,63.0,30.06,ESE,117,1.0,2.0,95,0.00,,,0.00,Wunderground v.1.15,2013-01-16 11:13:00,
2013-01-16 06:15:00,64.4,62.9,30.06,ESE,115,1.0,2.0,95,0.00,,,0.00,Wunderground v.1.15,2013-01-16 11:15:00,
2013-01-16 06:16:00,64.5,63.0,30.06,ESE,111,2.0,2.0,95,0.00,,,0.00,Wunderground v.1.15,2013-01-16 11:16:00,
2013-01-16 06:18:00,64.5,63.0,30.06,ESE,110,1.0,2.0,95,0.00,,,0.00,Wunderground v.1.15,2013-01-16 11:18:00,
2013-01-16 06:19:00,64.5,63.0,30.06,ESE,110,1.0,2.0,95,0.00,,,0.00,Wunderground v.1.15,2013-01-16 11:19:00,
2013-01-16 06:20:00,64.5,63.0,30.06,ESE,105,1.0,2.0,95,0.00,,,0.00,Wunderground v.1.15,2013-01-16 11:20:00,
2013-01-16 06:21:00,64.4,62.9,30.06,ESE,104,1.0,2.0,95,0.00,,,0.00,Wunderground v.1.15,2013-01-16 11:21:00,
2013-01-16 06:24:00,64.5,63.0,30.06,East,101,0.0,2.0,95,0.00,,,0.00,Wunderground v.1.15,2013-01-16 11:24:00,
2013-01-16 06:25:00,64.4,62.9,30.07,ESE,102,1.0,2.0,95,0.00,,,0.00,Wunderground v.1.15,2013-01-16 11:25:00,
2013-01-16 06:26:00,64.4,62.9,30.07,East,101,0.0,2.0,95,0.00,,,0.00,Wunderground v.1.15,2013-01-16 11:26:00,
2013-01-16 06:29:00,64.5,63.3,30.07,ESE,103,0.0,2.0,96,0.00,,,0.00,Wunderground v.1.15,2013-01-16 11:29:00,
2013-01-16 06:31:00,64.4,62.9,30.07,ESE,103,0.0,1.0,95,0.00,,,0.00,Wunderground v.1.15,2013-01-16 11:31:00,
2013-01-16 06:34:00,64.4,62.9,30.07,ESE,103,1.0,1.0,95,0.00,,,0.00,Wunderground v.1.15,2013-01-16 11:34:00,
2013-01-16 06:36:00,64.4,63.2,30.07,ESE,103,0.0,1.0,96,0.00,,,0.00,Wunderground v.1.15,2013-01-16 11:36:00,
2013-01-16 06:37:00,64.4,63.2,30.07,ESE,103,0.0,1.0,96,0.00,,,0.00,Wunderground v.1.15,2013-01-16 11:37:00,
2013-01-16 06:39:00,64.4,63.2,30.07,ESE,103,0.0,1.0,96,0.00,,,0.00,Wunderground v.1.15,2013-01-16 11:39:00,
2013-01-16 06:41:00,64.3,62.8,30.07,ESE,103,1.0,1.0,95,0.00,,,0.00,Wunderground v.1.15,2013-01-16 11:41:00,
2013-01-16 06:42:00,64.3,62.8,30.07,ESE,103,1.0,1.0,95,0.00,,,0.00,Wunderground v.1.15,2013-01-16 11:42:00,
2013-01-16 06:44:00,64.2,62.7,30.07,ESE,103,0.0,1.0,95,0.00,,,0.00,Wunderground v.1.15,2013-01-16 11:44:00,
2013-01-16 06:46:00,64.1,62.6,30.07,ESE,103,0.0,1.0,95,0.00,,,0.00,Wunderground v.1.15,2013-01-16 11:46:00,
2013-01-16 06:47:00,64.1,62.6,30.07,ESE,103,1.0,1.0,95,0.00,,,0.00,Wunderground v.1.15,2013-01-16 11:47:00,
2013-01-16 06:49:00,64.0,62.5,30.07,ESE,103,1.0,1.0,95,0.00,,,0.00,Wunderground v.1.15,2013-01-16 11:49:00,
2013-01-16 06:51:00,63.9,62.4,30.07,ESE,103,1.0,1.0,95,0.00,,,0.00,Wunderground v.1.15,2013-01-16 11:51:00,
2013-01-16 06:52:00,63.9,62.4,30.07,East,98,1.0,2.0,95,0.00,,,0.00,Wunderground v.1.15,2013-01-16 11:52:00,
2013-01-16 06:54:00,63.8,62.3,30.07,East,96,1.0,2.0,95,0.00,,,0.00,Wunderground v.1.15,2013-01-16 11:54:00,
2013-01-16 06:55:00,63.9,62.7,30.07,East,94,1.0,2.0,96,0.00,,,0.00,Wunderground v.1.15,2013-01-16 11:55:00,
2013-01-16 06:56:00,63.9,62.7,30.07,ESE,107,2.0,2.0,96,0.00,,,0.00,Wunderground v.1.15,2013-01-16 11:56:00,
2013-01-16 06:57:00,63.9,62.7,30.07,ESE,102,2.0,3.0,96,0.00,,,0.00,Wunderground v.1.15,2013-01-16 11:57:00,
2013-01-16 06:59:00,63.9,62.7,30.07,East,98,2.0,3.0,96,0.00,,,0.00,Wunderground v.1.15,2013-01-16 11:59:00,
2013-01-16 07:00:00,63.8,62.6,30.07,East,99,1.0,1.0,96,0.00,,,0.00,Wunderground v.1.15,2013-01-16 12:00:00,
2013-01-16 07:01:00,63.9,62.7,30.08,ESE,103,1.0,2.0,96,0.00,,,0.00,Wunderground v.1.15,2013-01-16 12:01:00,
2013-01-16 07:02:00,63.9,62.7,30.08,ESE,118,1.0,2.0,96,0.00,,,0.00,Wunderground v.1.15,2013-01-16 12:02:00,
2013-01-16 07:04:00,63.8,62.6,30.08,ESE,102,2.0,3.0,96,0.00,,,0.00,Wunderground v.1.15,2013-01-16 12:04:00,
2013-01-16 07:05:00,63.8,62.6,30.08,East,88,1.0,3.0,96,0.00,,,0.00,Wunderground v.1.15,2013-01-16 12:05:00,
2013-01-16 07:06:00,63.8,62.6,30.08,ESE,102,3.0,3.0,96,0.00,,,0.00,Wunderground v.1.15,2013-01-16 12:06:00,
2013-01-16 07:07:00,63.8,62.6,30.08,East,92,1.0,3.0,96,0.00,,,0.00,Wunderground v.1.15,2013-01-16 12:07:00,
2013-01-16 07:09:00,63.8,62.6,30.08,East,101,2.0,3.0,96,0.00,,,0.00,Wunderground v.1.15,2013-01-16 12:09:00,
2013-01-16 07:10:00,63.8,62.6,30.08,East,96,2.0,2.0,96,0.00,,,0.00,Wunderground v.1.15,2013-01-16 12:10:00,
2013-01-16 07:11:00,63.8,62.6,30.08,East,94,1.0,2.0,96,0.00,,,0.00,Wunderground v.1.15,2013-01-16 12:11:00,
2013-01-16 07:12:00,63.8,62.6,30.08,ESE,109,2.0,2.0,96,0.00,,,0.00,Wunderground v.1.15,2013-01-16 12:12:00,
2013-01-16 07:14:00,63.8,62.6,30.08,East,97,1.0,2.0,96,0.00,,,0.00,Wunderground v.1.15,2013-01-16 12:14:00,
2013-01-16 07:15:00,63.8,62.6,30.08,East,98,1.0,2.0,96,0.00,,,0.00,Wunderground v.1.15,2013-01-16 12:15:00,
2013-01-16 07:16:00,63.8,62.6,30.08,East,98,1.0,2.0,96,0.00,,,0.00,Wunderground v.1.15,2013-01-16 12:16:00,
2013-01-16 07:17:00,63.7,62.5,30.08,East,101,1.0,2.0,96,0.00,,,0.00,Wunderground v.1.15,2013-01-16 12:17:00,
2013-01-16 07:19:00,63.7,62.5,30.08,East,91,1.0,2.0,96,0.00,,,0.00,Wunderground v.1.15,2013-01-16 12:19:00,
2013-01-16 07:20:00,63.7,62.5,30.08,East,93,2.0,2.0,96,0.00,,,0.00,Wunderground v.1.15,2013-01-16 12:20:00,
2013-01-16 07:21:00,63.7,62.5,30.08,ESE,105,2.0,2.0,96,0.00,,,0.00,Wunderground v.1.15,2013-01-16 12:21:00,
2013-01-16 07:22:00,63.7,62.5,30.08,ESE,103,1.0,2.0,96,0.00,,,0.00,Wunderground v.1.15,2013-01-16 12:22:00,
2013-01-16 07:24:00,63.7,62.5,30.08,ESE,104,0.0,2.0,96,0.00,,,0.00,Wunderground v.1.15,2013-01-16 12:24:00,
2013-01-16 07:26:00,63.6,62.4,30.08,ESE,104,1.0,2.0,96,0.00,,,0.00,Wunderground v.1.15,2013-01-16 12:26:00,
2013-01-16 07:27:00,63.6,62.4,30.08,ESE,103,0.0,2.0,96,0.00,,,0.00,Wunderground v.1.15,2013-01-16 12:27:00,
2013-01-16 07:30:00,63.6,62.4,30.08,ESE,104,1.0,1.0,96,0.00,,,0.00,Wunderground v.1.15,2013-01-16 12:30:00,
2013-01-16 07:31:00,63.7,62.5,30.08,ESE,117,1.0,1.0,96,0.00,,,0.00,Wunderground v.1.15,2013-01-16 12:31:00,
2013-01-16 07:32:00,63.7,62.5,30.08,ESE,121,1.0,2.0,96,0.00,,,0.00,Wunderground v.1.15,2013-01-16 12:32:00,
2013-01-16 07:33:00,63.7,62.5,30.08,ESE,109,1.0,2.0,96,0.00,,,0.00,Wunderground v.1.15,2013-01-16 12:33:00,
2013-01-16 07:35:00,63.7,62.5,30.08,East,94,2.0,2.0,96,0.00,,,0.00,Wunderground v.1.15,2013-01-16 12:35:00,
2013-01-16 07:36:00,63.7,62.5,30.09,East,91,2.0,2.0,96,0.00,,,0.00,Wunderground v.1.15,2013-01-16 12:36:00,
2013-01-16 07:37:00,63.7,62.5,30.09,East,96,0.0,2.0,96,0.00,,,0.00,Wunderground v.1.15,2013-01-16 12:37:00,
2013-01-16 07:38:00,63.8,62.6,30.09,East,91,2.0,2.0,96,0.00,,,0.00,Wunderground v.1.15,2013-01-16 12:38:00,
2013-01-16 07:40:00,63.8,62.6,30.09,East,86,1.0,1.0,96,0.00,,,0.00,Wunderground v.1.15,2013-01-16 12:40:00,
2013-01-16 07:41:00,63.8,62.6,30.09,East,91,1.0,3.0,96,0.00,,,0.00,Wunderground v.1.15,2013-01-16 12:41:00,
2013-01-16 07:42:00,63.9,62.7,30.09,East,98,1.0,3.0,96,0.00,,,0.00,Wunderground v.1.15,2013-01-16 12:42:00,
2013-01-16 07:44:00,63.9,62.7,30.09,East,101,0.0,3.0,96,0.00,,,0.00,Wunderground v.1.15,2013-01-16 12:44:00,
2013-01-16 07:45:00,63.9,62.7,30.09,East,101,2.0,3.0,96,0.00,,,0.00,Wunderground v.1.15,2013-01-16 12:45:00,
2013-01-16 07:46:00,63.9,62.7,30.09,East,94,0.0,3.0,96,0.00,,,0.00,Wunderground v.1.15,2013-01-16 12:46:00,
2013-01-16 07:47:00,64.0,62.8,30.09,East,97,2.0,3.0,96,0.00,,,0.00,Wunderground v.1.15,2013-01-16 12:47:00,
2013-01-16 07:49:00,64.1,62.9,30.09,ESE,107,1.0,3.0,96,0.00,,,0.00,Wunderground v.1.15,2013-01-16 12:49:00,
2013-01-16 07:50:00,64.2,63.0,30.09,ESE,109,1.0,1.0,96,0.00,,,0.00,Wunderground v.1.15,2013-01-16 12:50:00,
2013-01-16 07:51:00,64.2,63.0,30.09,ESE,108,2.0,2.0,96,0.00,,,0.00,Wunderground v.1.15,2013-01-16 12:51:00,
2013-01-16 07:52:00,64.2,63.0,30.09,East,101,1.0,2.0,96,0.00,,,0.00,Wunderground v.1.15,2013-01-16 12:52:00,
2013-01-16 07:54:00,64.3,63.1,30.09,ESE,109,2.0,2.0,96,0.00,,,0.00,Wunderground v.1.15,2013-01-16 12:54:00,
2013-01-16 07:55:00,64.3,63.1,30.09,ESE,115,1.0,3.0,96,0.00,,,0.00,Wunderground v.1.15,2013-01-16 12:55:00,
2013-01-16 07:56:00,64.4,63.2,30.09,SE,134,2.0,3.0,96,0.00,,,0.00,Wunderground v.1.15,2013-01-16 12:56:00,
2013-01-16 07:57:00,64.4,63.2,30.09,East,100,1.0,3.0,96,0.00,,,0.00,Wunderground v.1.15,2013-01-16 12:57:00,
2013-01-16 07:59:00,64.5,63.3,30.09,East,97,2.0,4.0,96,0.00,,,0.00,Wunderground v.1.15,2013-01-16 12:59:00,
2013-01-16 08:00:00,64.5,63.3,30.09,ESE,109,3.0,3.0,96,0.00,,,0.00,Wunderground v.1.15,2013-01-16 13:00:00,
2013-01-16 08:02:00,64.6,63.4,30.09,ESE,115,2.0,4.0,96,0.00,,,0.00,Wunderground v.1.15,2013-01-16 13:02:00,
2013-01-16 08:04:00,64.7,63.5,30.09,East,91,3.0,4.0,96,0.00,,,0.00,Wunderground v.1.15,2013-01-16 13:04:00,
2013-01-16 08:05:00,64.7,63.5,30.09,ESE,109,1.0,4.0,96,0.00,,,0.00,Wunderground v.1.15,2013-01-16 13:05:00,
2013-01-16 08:07:00,64.8,63.6,30.09,ESE,121,2.0,4.0,96,0.00,,,0.00,Wunderground v.1.15,2013-01-16 13:07:00,
2013-01-16 08:09:00,64.9,63.7,30.10,ESE,114,2.0,4.0,96,0.00,,,0.00,Wunderground v.1.15,2013-01-16 13:09:00,
2013-01-16 08:10:00,65.0,63.8,30.09,ESE,111,1.0,2.0,96,0.00,,,0.00,Wunderground v.1.15,2013-01-16 13:10:00,
2013-01-16 08:12:00,65.1,63.9,30.10,ESE,121,2.0,3.0,96,0.00,,,0.00,Wunderground v.1.15,2013-01-16 13:12:00,
2013-01-16 08:14:00,65.2,64.0,30.10,ENE,67,2.0,3.0,96,0.00,,,0.00,Wunderground v.1.15,2013-01-16 13:14:00,
2013-01-16 08:15:00,65.3,64.1,30.10,East,86,3.0,3.0,96,0.00,,,0.00,Wunderground v.1.15,2013-01-16 13:15:00,
2013-01-16 08:17:00,65.4,64.2,30.10,ESE,108,3.0,3.0,96,0.00,,,0.00,Wunderground v.1.15,2013-01-16 13:17:00,
2013-01-16 08:18:00,65.4,64.2,30.10,East,91,1.0,3.0,96,0.00,,,0.00,Wunderground v.1.15,2013-01-16 13:18:00,
2013-01-16 08:19:00,65.4,64.2,30.10,East,96,2.0,3.0,96,0.00,,,0.00,Wunderground v.1.15,2013-01-16 13:19:00,
2013-01-16 08:21:00,65.6,64.4,30.10,ESE,106,1.0,2.0,96,0.00,,,0.00,Wunderground v.1.15,2013-01-16 13:21:00,
2013-01-16 08:22:00,65.6,64.4,30.10,East,100,2.0,3.0,96,0.00,,,0.00,Wunderground v.1.15,2013-01-16 13:22:00,
2013-01-16 08:23:00,65.7,64.5,30.10,ESE,106,3.0,3.0,96,0.00,,,0.00,Wunderground v.1.15,2013-01-16 13:23:00,
2013-01-16 08:24:00,65.7,64.5,30.10,ESE,111,1.0,3.0,96,0.00,,,0.00,Wunderground v.1.15,2013-01-16 13:24:00,
2013-01-16 08:26:00,65.9,64.7,30.10,ESE,112,2.0,4.0,96,0.00,,,0.00,Wunderground v.1.15,2013-01-16 13:26:00,
2013-01-16 08:27:00,66.0,64.8,30.10,ENE,78,3.0,4.0,96,0.00,,,0.00,Wunderground v.1.15,2013-01-16 13:27:00,
2013-01-16 08:28:00,66.0,64.8,30.10,SE,146,3.0,6.0,96,0.00,,,0.00,Wunderground v.1.15,2013-01-16 13:28:00,
2013-01-16 08:29:00,66.1,64.9,30.10,ESE,105,3.0,6.0,96,0.00,,,0.00,Wunderground v.1.15,2013-01-16 13:29:00,
2013-01-16 08:31:00,66.3,65.1,30.10,East,85,2.0,4.0,96,0.00,,,0.00,Wunderground v.1.15,2013-01-16 13:31:00,
2013-01-16 08:32:00,66.4,65.2,30.10,SE,129,3.0,4.0,96,0.00,,,0.00,Wunderground v.1.15,2013-01-16 13:32:00,
2013-01-16 08:33:00,66.4,65.2,30.10,SE,125,2.0,4.0,96,0.00,,,0.00,Wunderground v.1.15,2013-01-16 13:33:00,
2013-01-16 08:34:00,66.4,65.2,30.10,East,80,2.0,4.0,96,0.00,,,0.00,Wunderground v.1.15,2013-01-16 13:34:00,
2013-01-16 08:37:00,66.6,65.1,30.10,ESE,115,4.0,6.0,95,0.00,,,0.00,Wunderground v.1.15,2013-01-16 13:37:00,
2013-01-16 08:38:00,66.6,65.1,30.10,SE,134,2.0,6.0,95,0.00,,,0.00,Wunderground v.1.15,2013-01-16 13:38:00,
2013-01-16 08:39:00,66.8,65.3,30.10,ESE,109,2.0,6.0,95,0.00,,,0.00,Wunderground v.1.15,2013-01-16 13:39:00,
2013-01-16 08:42:00,67.0,65.5,30.10,SE,127,1.0,6.0,95,0.00,,,0.00,Wunderground v.1.15,2013-01-16 13:42:00,
2013-01-16 08:43:00,67.1,65.6,30.10,SE,138,2.0,6.0,95,0.00,,,0.00,Wunderground v.1.15,2013-01-16 13:43:00,
2013-01-16 08:44:00,67.3,65.8,30.10,ESE,113,5.0,6.0,95,0.00,,,0.00,Wunderground v.1.15,2013-01-16 13:44:00,
2013-01-16 08:47:00,67.5,65.7,30.10,SE,128,3.0,7.0,94,0.00,,,0.00,Wunderground v.1.15,2013-01-16 13:47:00,
2013-01-16 08:48:00,67.7,65.9,30.10,East,99,3.0,7.0,94,0.00,,,0.00,Wunderground v.1.15,2013-01-16 13:48:00,
2013-01-16 08:49:00,67.9,66.1,30.10,SSE,159,3.0,7.0,94,0.00,,,0.00,Wunderground v.1.15,2013-01-16 13:49:00,
2013-01-16 08:52:00,68.2,66.4,30.10,SE,129,4.0,5.0,94,0.00,,,0.00,Wunderground v.1.15,2013-01-16 13:52:00,
2013-01-16 08:54:00,68.4,66.3,30.10,SSE,158,4.0,5.0,93,0.00,,,0.00,Wunderground v.1.15,2013-01-16 13:54:00,
2013-01-16 08:57:00,68.8,66.4,30.10,ESE,111,4.0,6.0,92,0.00,,,0.00,Wunderground v.1.15,2013-01-16 13:57:00,
2013-01-16 08:59:00,68.9,66.2,30.10,SE,133,6.0,7.0,91,0.00,,,0.00,Wunderground v.1.15,2013-01-16 13:59:00,
2013-01-16 09:02:00,69.3,66.2,30.10,SE,124,6.0,7.0,90,0.00,,,0.00,Wunderground v.1.15,2013-01-16 14:02:00,
2013-01-16 09:04:00,69.4,66.3,30.10,SE,139,2.0,8.0,90,0.00,,,0.00,Wunderground v.1.15,2013-01-16 14:04:00,
2013-01-16 09:05:00,69.5,66.1,30.11,East,96,2.0,8.0,89,0.00,,,0.00,Wunderground v.1.15,2013-01-16 14:05:00,
2013-01-16 09:07:00,69.8,66.4,30.11,SE,143,5.0,8.0,89,0.00,,,0.00,Wunderground v.1.15,2013-01-16 14:07:00,
2013-01-16 09:09:00,69.9,66.2,30.11,ENE,61,3.0,8.0,88,0.00,,,0.00,Wunderground v.1.15,2013-01-16 14:09:00,
2013-01-16 09:10:00,70.0,66.3,30.11,SE,138,4.0,4.0,88,0.00,,,0.00,Wunderground v.1.15,2013-01-16 14:10:00,
2013-01-16 09:13:00,70.3,66.6,30.11,SE,141,3.0,4.0,88,0.00,,,0.00,Wunderground v.1.15,2013-01-16 14:13:00,
2013-01-16 09:14:00,70.4,66.7,30.11,SE,126,3.0,4.0,88,0.00,,,0.00,Wunderground v.1.15,2013-01-16 14:14:00,
2013-01-16 09:15:00,70.5,66.4,30.11,ESE,118,4.0,4.0,87,0.00,,,0.00,Wunderground v.1.15,2013-01-16 14:15:00,
2013-01-16 09:18:00,70.8,66.7,30.11,ESE,111,3.0,4.0,87,0.00,,,0.00,Wunderground v.1.15,2013-01-16 14:18:00,
2013-01-16 09:19:00,70.9,66.5,30.11,SSE,165,4.0,10.0,86,0.00,,,0.00,Wunderground v.1.15,2013-01-16 14:19:00,
2013-01-16 09:20:00,71.0,66.6,30.11,SSE,162,2.0,5.0,86,0.00,,,0.00,Wunderground v.1.15,2013-01-16 14:20:00,
2013-01-16 09:23:00,71.2,66.5,30.11,SE,139,5.0,5.0,85,0.00,,,0.00,Wunderground v.1.15,2013-01-16 14:23:00,
2013-01-16 09:24:00,71.3,66.9,30.11,ESE,118,2.0,6.0,86,0.00,,,0.00,Wunderground v.1.15,2013-01-16 14:24:00,
2013-01-16 09:25:00,71.4,66.7,30.11,ESE,118,5.0,8.0,85,0.00,,,0.00,Wunderground v.1.15,2013-01-16 14:25:00,
2013-01-16 09:28:00,71.5,66.8,30.11,SE,135,6.0,9.0,85,0.00,,,0.00,Wunderground v.1.15,2013-01-16 14:28:00,
2013-01-16 09:29:00,71.6,66.8,30.11,SE,137,5.0,9.0,85,0.00,,,0.00,Wunderground v.1.15,2013-01-16 14:29:00,
2013-01-16 09:30:00,71.6,66.8,30.11,SE,134,4.0,4.0,85,0.00,,,0.00,Wunderground v.1.15,2013-01-16 14:30:00,
2013-01-16 09:33:00,71.9,66.8,30.11,ESE,115,5.0,10.0,84,0.00,,,0.00,Wunderground v.1.15,2013-01-16 14:33:00,
2013-01-16 09:35:00,72.0,66.9,30.11,ESE,118,3.0,10.0,84,0.00,,,0.00,Wunderground v.1.15,2013-01-16 14:35:00,
2013-01-16 09:38:00,72.2,66.7,30.11,ESE,109,3.0,10.0,83,0.00,,,0.00,Wunderground v.1.15,2013-01-16 14:38:00,
2013-01-16 09:40:00,72.3,66.8,30.11,SSE,148,2.0,5.0,83,0.00,,,0.00,Wunderground v.1.15,2013-01-16 14:40:00,
2013-01-16 09:43:00,72.7,67.2,30.11,South,184,3.0,7.0,83,0.00,,,0.00,Wunderground v.1.15,2013-01-16 14:43:00,
2013-01-16 09:45:00,72.9,67.4,30.11,SE,124,2.0,7.0,83,0.00,,,0.00,Wunderground v.1.15,2013-01-16 14:45:00,
2013-01-16 09:48:00,73.3,67.5,30.11,ESE,108,3.0,7.0,82,0.00,,,0.00,Wunderground v.1.15,2013-01-16 14:48:00,
2013-01-16 09:50:00,73.5,67.7,30.12,SE,146,4.0,5.0,82,0.00,,,0.00,Wunderground v.1.15,2013-01-16 14:50:00,
2013-01-16 09:53:00,73.8,67.2,30.12,SE,144,2.0,6.0,80,0.00,,,0.00,Wunderground v.1.15,2013-01-16 14:53:00,
2013-01-16 09:55:00,74.1,67.9,30.12,South,183,5.0,6.0,81,0.00,,,0.00,Wunderground v.1.15,2013-01-16 14:55:00,
2013-01-16 09:58:00,74.4,67.1,30.12,SE,129,10.0,10.0,78,0.00,,,0.00,Wunderground v.1.15,2013-01-16 14:58:00,
2013-01-16 10:00:00,74.5,67.2,30.12,South,170,3.0,7.0,78,0.00,,,0.00,Wunderground v.1.15,2013-01-16 15:00:00,
2013-01-16 10:01:00,74.5,67.2,30.12,SSW,204,4.0,7.0,78,0.00,,,0.00,Wunderground v.1.15,2013-01-16 15:01:00,
2013-01-16 10:03:00,74.7,67.0,30.12,SE,134,4.0,7.0,77,0.00,,,0.00,Wunderground v.1.15,2013-01-16 15:03:00,
2013-01-16 10:05:00,74.9,67.2,30.12,SW,221,2.0,7.0,77,0.00,,,0.00,Wunderground v.1.15,2013-01-16 15:05:00,
2013-01-16 10:06:00,74.9,67.2,30.12,SSW,198,3.0,7.0,77,0.00,,,0.00,Wunderground v.1.15,2013-01-16 15:06:00,
2013-01-16 10:09:00,75.0,66.9,30.12,SW,228,5.0,10.0,76,0.00,,,0.00,Wunderground v.1.15,2013-01-16 15:09:00,
2013-01-16 10:11:00,75.0,66.5,30.12,SSW,193,3.0,8.0,75,0.00,,,0.00,Wunderground v.1.15,2013-01-16 15:11:00,
2013-01-16 10:14:00,75.1,66.6,30.12,SE,128,7.0,9.0,75,0.00,,,0.00,Wunderground v.1.15,2013-01-16 15:14:00,
2013-01-16 10:16:00,75.1,66.2,30.12,SE,141,5.0,10.0,74,0.00,,,0.00,Wunderground v.1.15,2013-01-16 15:16:00,
2013-01-16 10:19:00,75.2,66.7,30.12,South,187,3.0,10.0,75,0.00,,,0.00,Wunderground v.1.15,2013-01-16 15:19:00,
2013-01-16 10:21:00,75.3,66.4,30.12,South,183,2.0,8.0,74,0.00,,,0.00,Wunderground v.1.15,2013-01-16 15:21:00,
2013-01-16 10:24:00,75.4,66.1,30.12,SSE,156,6.0,9.0,73,0.00,,,0.00,Wunderground v.1.15,2013-01-16 15:24:00,
2013-01-16 10:26:00,75.4,66.1,30.12,SE,126,7.0,11.0,73,0.00,,,0.00,Wunderground v.1.15,2013-01-16 15:26:00,
2013-01-16 10:29:00,75.4,66.1,30.12,ENE,77,7.0,11.0,73,0.00,,,0.00,Wunderground v.1.15,2013-01-16 15:29:00,
2013-01-16 10:31:00,75.5,66.2,30.12,SE,134,3.0,9.0,73,0.00,,,0.00,Wunderground v.1.15,2013-01-16 15:31:00,
2013-01-16 10:34:00,75.6,66.3,30.11,SSE,149,4.0,9.0,73,0.00,,,0.00,Wunderground v.1.15,2013-01-16 15:34:00,
2013-01-16 10:36:00,75.8,66.5,30.11,South,178,7.0,9.0,73,0.00,,,0.00,Wunderground v.1.15,2013-01-16 15:36:00,
2013-01-16 10:39:00,75.9,66.2,30.11,SSE,155,5.0,10.0,72,0.00,,,0.00,Wunderground v.1.15,2013-01-16 15:39:00,
2013-01-16 10:41:00,76.0,66.3,30.11,SSE,160,3.0,8.0,72,0.00,,,0.00,Wunderground v.1.15,2013-01-16 15:41:00,
2013-01-16 10:44:00,76.2,66.1,30.11,South,173,6.0,10.0,71,0.00,,,0.00,Wunderground v.1.15,2013-01-16 15:44:00,
2013-01-16 10:46:00,76.3,66.6,30.11,SSE,163,7.0,10.0,72,0.00,,,0.00,Wunderground v.1.15,2013-01-16 15:46:00,
2013-01-16 10:47:00,76.3,65.8,30.11,SE,134,5.0,10.0,70,0.00,,,0.00,Wunderground v.1.15,2013-01-16 15:47:00,
2013-01-16 10:49:00,76.3,66.2,30.11,SE,138,4.0,10.0,71,0.00,,,0.00,Wunderground v.1.15,2013-01-16 15:49:00,
2013-01-16 10:51:00,76.4,66.3,30.10,SSW,205,3.0,5.0,71,0.00,,,0.00,Wunderground v.1.15,2013-01-16 15:51:00,
2013-01-16 10:52:00,76.5,66.4,30.10,WSW,238,3.0,5.0,71,0.00,,,0.00,Wunderground v.1.15,2013-01-16 15:52:00,
2013-01-16 10:54:00,76.7,66.2,30.10,South,181,7.0,7.0,70,0.00,,,0.00,Wunderground v.1.15,2013-01-16 15:54:00,
2013-01-16 10:56:00,76.8,65.9,30.10,SE,146,7.0,11.0,69,0.00,,,0.00,Wunderground v.1.15,2013-01-16 15:56:00,
2013-01-16 10:57:00,76.8,65.9,30.10,SE,132,6.0,11.0,69,0.00,,,0.00,Wunderground v.1.15,2013-01-16 15:57:00,
2013-01-16 10:59:00,76.8,65.9,30.10,SSE,158,8.0,13.0,69,0.00,,,0.00,Wunderground v.1.15,2013-01-16 15:59:00,
2013-01-16 11:01:00,76.6,66.1,30.10,SSW,208,7.0,11.0,70,0.00,,,0.00,Wunderground v.1.15,2013-01-16 16:01:00,
2013-01-16 11:02:00,76.6,66.1,30.10,SSE,150,5.0,11.0,70,0.00,,,0.00,Wunderground v.1.15,2013-01-16 16:02:00,
2013-01-16 11:04:00,76.6,66.1,30.10,South,187,7.0,13.0,70,0.00,,,0.00,Wunderground v.1.15,2013-01-16 16:04:00,
2013-01-16 11:06:00,76.5,66.4,30.10,South,170,11.0,13.0,71,0.00,,,0.00,Wunderground v.1.15,2013-01-16 16:06:00,
2013-01-16 11:07:00,76.5,66.4,30.10,South,174,7.0,13.0,71,0.00,,,0.00,Wunderground v.1.15,2013-01-16 16:07:00,
2013-01-16 11:10:00,76.3,66.2,30.10,SSE,166,7.0,7.0,71,0.00,,,0.00,Wunderground v.1.15,2013-01-16 16:10:00,
2013-01-16 11:11:00,76.3,65.8,30.09,SW,218,3.0,11.0,70,0.00,,,0.00,Wunderground v.1.15,2013-01-16 16:11:00,
2013-01-16 11:12:00,76.2,65.7,30.09,South,173,5.0,11.0,70,0.00,,,0.00,Wunderground v.1.15,2013-01-16 16:12:00,
2013-01-16 11:15:00,76.3,66.2,30.09,SE,141,4.0,11.0,71,0.00,,,0.00,Wunderground v.1.15,2013-01-16 16:15:00,
2013-01-16 11:16:00,76.3,66.2,30.09,SSW,193,4.0,11.0,71,0.00,,,0.00,Wunderground v.1.15,2013-01-16 16:16:00,
2013-01-16 11:17:00,76.3,66.2,30.09,South,170,6.0,11.0,71,0.00,,,0.00,Wunderground v.1.15,2013-01-16 16:17:00,
2013-01-16 11:20:00,76.3,66.2,30.09,SE,141,9.0,10.0,71,0.00,,,0.00,Wunderground v.1.15,2013-01-16 16:20:00,
2013-01-16 11:21:00,76.3,65.8,30.09,SE,135,2.0,10.0,70,0.00,,,0.00,Wunderground v.1.15,2013-01-16 16:21:00,
2013-01-16 11:22:00,76.3,65.8,30.09,SSE,151,4.0,10.0,70,0.00,,,0.00,Wunderground v.1.15,2013-01-16 16:22:00,
2013-01-16 11:25:00,76.4,65.9,30.09,SE,141,9.0,10.0,70,0.00,,,0.00,Wunderground v.1.15,2013-01-16 16:25:00,
2013-01-16 11:27:00,76.5,66.0,30.09,ESE,121,3.0,10.0,70,0.00,,,0.00,Wunderground v.1.15,2013-01-16 16:27:00,
2013-01-16 11:28:00,76.5,65.6,30.09,SSE,150,7.0,10.0,69,0.00,,,0.00,Wunderground v.1.15,2013-01-16 16:28:00,
2013-01-16 11:31:00,76.5,65.6,30.09,SSW,197,4.0,6.0,69,0.00,,,0.00,Wunderground v.1.15,2013-01-16 16:31:00,
2013-01-16 11:32:00,76.6,65.7,30.08,ESE,106,4.0,7.0,69,0.00,,,0.00,Wunderground v.1.15,2013-01-16 16:32:00,
2013-01-16 11:33:00,76.7,65.8,30.08,SE,145,1.0,7.0,69,0.00,,,0.00,Wunderground v.1.15,2013-01-16 16:33:00,
2013-01-16 11:36:00,77.1,65.7,30.08,SE,131,4.0,10.0,68,0.00,,,0.00,Wunderground v.1.15,2013-01-16 16:36:00,
2013-01-16 11:37:00,77.2,65.8,30.08,SSW,205,9.0,10.0,68,0.00,,,0.00,Wunderground v.1.15,2013-01-16 16:37:00,
2013-01-16 11:38:00,77.1,65.7,30.08,SSW,200,10.0,11.0,68,0.00,,,0.00,Wunderground v.1.15,2013-01-16 16:38:00,
2013-01-16 11:41:00,77.0,65.6,30.08,SSW,200,8.0,10.0,68,0.00,,,0.00,Wunderground v.1.15,2013-01-16 16:41:00,
2013-01-16 11:42:00,77.1,65.7,30.08,SSW,203,6.0,10.0,68,0.00,,,0.00,Wunderground v.1.15,2013-01-16 16:42:00,
2013-01-16 11:43:00,77.1,65.7,30.08,SW,222,4.0,10.0,68,0.00,,,0.00,Wunderground v.1.15,2013-01-16 16:43:00,
2013-01-16 11:46:00,77.2,65.8,30.08,SW,235,4.0,10.0,68,0.00,,,0.00,Wunderground v.1.15,2013-01-16 16:46:00,
2013-01-16 11:47:00,77.2,65.8,30.08,SSW,207,6.0,10.0,68,0.00,,,0.00,Wunderground v.1.15,2013-01-16 16:47:00,
2013-01-16 11:48:00,77.2,65.8,30.08,SSW,209,5.0,10.0,68,0.00,,,0.00,Wunderground v.1.15,2013-01-16 16:48:00,
2013-01-16 11:51:00,77.3,65.9,30.08,South,191,9.0,9.0,68,0.00,,,0.00,Wunderground v.1.15,2013-01-16 16:51:00,
2013-01-16 11:52:00,77.2,65.8,30.08,South,191,5.0,9.0,68,0.00,,,0.00,Wunderground v.1.15,2013-01-16 16:52:00,
2013-01-16 11:53:00,77.3,65.9,30.07,South,186,5.0,9.0,68,0.00,,,0.00,Wunderground v.1.15,2013-01-16 16:53:00,
2013-01-16 11:56:00,77.6,66.2,30.07,South,169,8.0,9.0,68,0.00,,,0.00,Wunderground v.1.15,2013-01-16 16:56:00,
2013-01-16 11:57:00,77.7,66.3,30.08,SSW,203,5.0,9.0,68,0.00,,,0.00,Wunderground v.1.15,2013-01-16 16:57:00,
2013-01-16 11:58:00,77.8,66.0,30.07,SSW,205,4.0,9.0,67,0.00,,,0.00,Wunderground v.1.15,2013-01-16 16:58:00,
2013-01-16 12:01:00,77.7,65.0,30.07,SSW,203,8.0,12.0,65,0.00,,,0.00,Wunderground v.1.15,2013-01-16 17:01:00,
2013-01-16 12:02:00,77.5,65.2,30.07,SSW,209,10.0,12.0,66,0.00,,,0.00,Wunderground v.1.15,2013-01-16 17:02:00,
2013-01-16 12:03:00,77.4,65.6,30.07,South,186,5.0,12.0,67,0.00,,,0.00,Wunderground v.1.15,2013-01-16 17:03:00,
2013-01-16 12:07:00,77.5,65.7,30.07,SSW,201,6.0,12.0,67,0.00,,,0.00,Wunderground v.1.15,2013-01-16 17:07:00,
2013-01-16 12:08:00,77.5,65.7,30.07,South,188,6.0,12.0,67,0.00,,,0.00,Wunderground v.1.15,2013-01-16 17:08:00,
2013-01-16 12:09:00,77.4,65.6,30.07,South,184,7.0,12.0,67,0.00,,,0.00,Wunderground v.1.15,2013-01-16 17:09:00,
2013-01-16 12:12:00,77.3,65.5,30.07,SW,232,6.0,9.0,67,0.00,,,0.00,Wunderground v.1.15,2013-01-16 17:12:00,
2013-01-16 12:13:00,77.2,65.0,30.07,SE,141,5.0,9.0,66,0.00,,,0.00,Wunderground v.1.15,2013-01-16 17:13:00,
2013-01-16 12:14:00,77.3,65.1,30.07,SW,214,2.0,9.0,66,0.00,,,0.00,Wunderground v.1.15,2013-01-16 17:14:00,
2013-01-16 12:17:00,77.6,65.8,30.07,SSW,201,3.0,9.0,67,0.00,,,0.00,Wunderground v.1.15,2013-01-16 17:17:00,
2013-01-16 12:19:00,77.7,65.0,30.07,South,184,8.0,11.0,65,0.00,,,0.00,Wunderground v.1.15,2013-01-16 17:19:00,
2013-01-16 12:20:00,77.7,65.0,30.07,SSE,158,8.0,8.0,65,0.00,,,0.00,Wunderground v.1.15,2013-01-16 17:20:00,
2013-01-16 12:22:00,77.7,65.4,30.07,SSE,167,5.0,9.0,66,0.00,,,0.00,Wunderground v.1.15,2013-01-16 17:22:00,
2013-01-16 12:23:00,77.8,65.1,30.07,SSW,193,7.0,9.0,65,0.00,,,0.00,Wunderground v.1.15,2013-01-16 17:23:00,
2013-01-16 12:24:00,77.9,65.2,30.07,SE,146,5.0,9.0,65,0.00,,,0.00,Wunderground v.1.15,2013-01-16 17:24:00,
2013-01-16 12:25:00,77.9,65.2,30.07,SE,129,3.0,9.0,65,0.00,,,0.00,Wunderground v.1.15,2013-01-16 17:25:00,
2013-01-16 12:27:00,78.2,65.9,30.06,SSE,163,2.0,9.0,66,0.00,,,0.00,Wunderground v.1.15,2013-01-16 17:27:00,
2013-01-16 12:28:00,78.4,65.2,30.07,SE,145,4.0,9.0,64,0.00,,,0.00,Wunderground v.1.15,2013-01-16 17:28:00,
2013-01-16 12:29:00,78.5,65.3,30.06,SE,135,4.0,9.0,64,0.00,,,0.00,Wunderground v.1.15,2013-01-16 17:29:00,
2013-01-16 12:30:00,78.4,65.2,30.06,SE,128,2.0,4.0,64,0.00,,,0.00,Wunderground v.1.15,2013-01-16 17:30:00,
2013-01-16 12:32:00,78.4,64.8,30.06,SSE,155,6.0,7.0,63,0.00,,,0.00,Wunderground v.1.15,2013-01-16 17:32:00,
2013-01-16 12:34:00,78.5,65.3,30.06,South,184,5.0,8.0,64,0.00,,,0.00,Wunderground v.1.15,2013-01-16 17:34:00,
2013-01-16 12:36:00,78.3,63.7,30.06,SW,217,8.0,11.0,61,0.00,,,0.00,Wunderground v.1.15,2013-01-16 17:36:00,
2013-01-16 12:37:00,78.1,63.6,30.06,South,187,5.0,11.0,61,0.00,,,0.00,Wunderground v.1.15,2013-01-16 17:37:00,
2013-01-16 12:39:00,78.0,63.9,30.06,SW,225,3.0,11.0,62,0.00,,,0.00,Wunderground v.1.15,2013-01-16 17:39:00,
2013-01-16 12:40:00,77.9,64.3,30.06,SE,128,6.0,6.0,63,0.00,,,0.00,Wunderground v.1.15,2013-01-16 17:40:00,
2013-01-16 12:41:00,77.9,64.7,30.06,South,179,8.0,8.0,64,0.00,,,0.00,Wunderground v.1.15,2013-01-16 17:41:00,
2013-01-16 12:42:00,78.0,64.8,30.06,SW,215,2.0,10.0,64,0.00,,,0.00,Wunderground v.1.15,2013-01-16 17:42:00,
2013-01-16 12:44:00,78.1,64.9,30.06,SSW,200,6.0,10.0,64,0.00,,,0.00,Wunderground v.1.15,2013-01-16 17:44:00,
2013-01-16 12:45:00,78.2,64.1,30.06,South,181,4.0,10.0,62,0.00,,,0.00,Wunderground v.1.15,2013-01-16 17:45:00,
2013-01-16 12:46:00,78.2,64.6,30.06,SW,215,3.0,10.0,63,0.00,,,0.00,Wunderground v.1.15,2013-01-16 17:46:00,
2013-01-16 12:47:00,78.2,64.6,30.06,WSW,242,4.0,10.0,63,0.00,,,0.00,Wunderground v.1.15,2013-01-16 17:47:00,
2013-01-16 12:49:00,78.2,64.1,30.06,SW,236,5.0,10.0,62,0.00,,,0.00,Wunderground v.1.15,2013-01-16 17:49:00,
2013-01-16 12:50:00,78.1,63.6,30.06,SW,219,9.0,9.0,61,0.00,,,0.00,Wunderground v.1.15,2013-01-16 17:50:00,
2013-01-16 12:51:00,77.9,64.3,30.05,South,170,4.0,9.0,63,0.00,,,0.00,Wunderground v.1.15,2013-01-16 17:51:00,
2013-01-16 12:53:00,77.9,64.3,30.05,South,187,3.0,9.0,63,0.00,,,0.00,Wunderground v.1.15,2013-01-16 17:53:00,
2013-01-16 12:54:00,78.0,64.4,30.05,SSW,193,6.0,9.0,63,0.00,,,0.00,Wunderground v.1.15,2013-01-16 17:54:00,
2013-01-16 12:55:00,78.0,62.5,30.05,SW,222,5.0,9.0,59,0.00,,,0.00,Wunderground v.1.15,2013-01-16 17:55:00,
2013-01-16 12:56:00,78.1,63.6,30.05,SSW,195,8.0,9.0,61,0.00,,,0.00,Wunderground v.1.15,2013-01-16 17:56:00,
2013-01-16 12:58:00,78.1,64.5,30.05,SSW,200,4.0,9.0,63,0.00,,,0.00,Wunderground v.1.15,2013-01-16 17:58:00,
2013-01-16 12:59:00,78.1,64.5,30.05,WSW,253,8.0,11.0,63,0.00,,,0.00,Wunderground v.1.15,2013-01-16 17:59:00,
2013-01-16 13:00:00,78.1,64.5,30.05,SW,221,8.0,9.0,63,0.00,,,0.00,Wunderground v.1.15,2013-01-16 18:00:00,
2013-01-16 13:01:00,78.0,64.8,30.05,SW,236,8.0,9.0,64,0.00,,,0.00,Wunderground v.1.15,2013-01-16 18:01:00,
2013-01-16 13:03:00,77.7,64.1,30.05,SW,236,7.0,11.0,63,0.00,,,0.00,Wunderground v.1.15,2013-01-16 18:03:00,
2013-01-16 13:04:00,77.6,64.0,30.05,SSW,207,9.0,11.0,63,0.00,,,0.00,Wunderground v.1.15,2013-01-16 18:04:00,
2013-01-16 13:05:00,77.6,63.5,30.05,SW,226,6.0,11.0,62,0.00,,,0.00,Wunderground v.1.15,2013-01-16 18:05:00,
2013-01-16 13:06:00,77.5,65.2,30.05,West,271,6.0,11.0,66,0.00,,,0.00,Wunderground v.1.15,2013-01-16 18:06:00,
2013-01-16 13:09:00,77.4,65.1,30.05,SSW,205,8.0,11.0,66,0.00,,,0.00,Wunderground v.1.15,2013-01-16 18:09:00,
2013-01-16 13:10:00,77.4,65.1,30.05,SW,221,5.0,7.0,66,0.00,,,0.00,Wunderground v.1.15,2013-01-16 18:10:00,
2013-01-16 13:11:00,77.4,64.3,30.05,South,173,5.0,9.0,64,0.00,,,0.00,Wunderground v.1.15,2013-01-16 18:11:00,
2013-01-16 13:14:00,77.3,62.8,30.05,SSW,201,5.0,11.0,61,0.00,,,0.00,Wunderground v.1.15,2013-01-16 18:14:00,
2013-01-16 13:15:00,77.4,65.1,30.05,SSW,205,4.0,11.0,66,0.00,,,0.00,Wunderground v.1.15,2013-01-16 18:15:00,
2013-01-16 13:16:00,77.5,65.2,30.05,SSW,210,10.0,12.0,66,0.00,,,0.00,Wunderground v.1.15,2013-01-16 18:16:00,
2013-01-16 13:19:00,77.6,65.3,30.05,South,178,5.0,12.0,66,0.00,,,0.00,Wunderground v.1.15,2013-01-16 18:19:00,
2013-01-16 13:20:00,77.6,65.3,30.05,South,172,8.0,8.0,66,0.00,,,0.00,Wunderground v.1.15,2013-01-16 18:20:00,
2013-01-16 13:21:00,77.5,65.7,30.05,SSW,208,5.0,9.0,67,0.00,,,0.00,Wunderground v.1.15,2013-01-16 18:21:00,
2013-01-16 13:24:00,77.6,66.2,30.05,South,173,6.0,12.0,68,0.00,,,0.00,Wunderground v.1.15,2013-01-16 18:24:00,
2013-01-16 13:26:00,77.6,66.2,30.05,SW,222,6.0,12.0,68,0.00,,,0.00,Wunderground v.1.15,2013-01-16 18:26:00,
2013-01-16 13:29:00,77.6,65.3,30.05,WSW,250,9.0,12.0,66,0.00,,,0.00,Wunderground v.1.15,2013-01-16 18:29:00,
2013-01-16 13:31:00,77.5,65.2,30.04,South,176,6.0,7.0,66,0.00,,,0.00,Wunderground v.1.15,2013-01-16 18:31:00,
2013-01-16 13:34:00,77.7,65.0,30.05,SSE,166,5.0,9.0,65,0.00,,,0.00,Wunderground v.1.15,2013-01-16 18:34:00,
2013-01-16 13:36:00,77.8,65.5,30.04,SW,221,4.0,10.0,66,0.00,,,0.00,Wunderground v.1.15,2013-01-16 18:36:00,
2013-01-16 13:39:00,77.8,66.0,30.04,SW,220,11.0,11.0,67,0.00,,,0.00,Wunderground v.1.15,2013-01-16 18:39:00,
2013-01-16 13:40:00,77.8,66.0,30.04,SSE,153,6.0,7.0,67,0.00,,,0.00,Wunderground v.1.15,2013-01-16 18:40:00,
2013-01-16 13:41:00,77.9,65.2,30.04,SSW,204,6.0,9.0,65,0.00,,,0.00,Wunderground v.1.15,2013-01-16 18:41:00,
2013-01-16 13:44:00,78.0,64.4,30.04,South,178,8.0,11.0,63,0.00,,,0.00,Wunderground v.1.15,2013-01-16 18:44:00,
2013-01-16 13:45:00,78.0,64.4,30.04,SSW,207,4.0,11.0,63,0.00,,,0.00,Wunderground v.1.15,2013-01-16 18:45:00,
2013-01-16 13:46:00,77.8,65.1,30.04,SW,214,10.0,14.0,65,0.00,,,0.00,Wunderground v.1.15,2013-01-16 18:46:00,
2013-01-16 13:49:00,77.4,65.1,30.04,South,184,7.0,14.0,66,0.00,,,0.00,Wunderground v.1.15,2013-01-16 18:49:00,
2013-01-16 13:50:00,77.4,65.1,30.04,SSW,196,13.0,13.0,66,0.00,,,0.00,Wunderground v.1.15,2013-01-16 18:50:00,
2013-01-16 13:52:00,77.2,65.0,30.04,WSW,238,11.0,13.0,66,0.00,,,0.00,Wunderground v.1.15,2013-01-16 18:52:00,
2013-01-16 13:54:00,77.2,65.4,30.04,SSW,205,3.0,13.0,67,0.00,,,0.00,Wunderground v.1.15,2013-01-16 18:54:00,
2013-01-16 13:55:00,77.2,65.4,30.04,SSW,199,6.0,13.0,67,0.00,,,0.00,Wunderground v.1.15,2013-01-16 18:55:00,
2013-01-16 13:57:00,77.2,65.4,30.04,SSW,195,6.0,13.0,67,0.00,,,0.00,Wunderground v.1.15,2013-01-16 18:57:00,
2013-01-16 14:00:00,77.2,65.8,30.04,SSW,211,11.0,11.0,68,0.00,,,0.00,Wunderground v.1.15,2013-01-16 19:00:00,
2013-01-16 14:02:00,77.2,65.8,30.04,SW,214,10.0,12.0,68,0.00,,,0.00,Wunderground v.1.15,2013-01-16 19:02:00,
2013-01-16 14:05:00,76.8,65.4,30.04,SSW,208,4.0,13.0,68,0.00,,,0.00,Wunderground v.1.15,2013-01-16 19:05:00,
2013-01-16 14:07:00,76.8,65.4,30.04,SW,219,14.0,14.0,68,0.00,,,0.00,Wunderground v.1.15,2013-01-16 19:07:00,
2013-01-16 14:10:00,76.9,65.5,30.04,SW,221,7.0,8.0,68,0.00,,,0.00,Wunderground v.1.15,2013-01-16 19:10:00,
2013-01-16 14:12:00,76.8,65.0,30.03,SSW,211,13.0,13.0,67,0.00,,,0.00,Wunderground v.1.15,2013-01-16 19:12:00,
2013-01-16 14:15:00,76.7,65.3,30.03,South,181,8.0,13.0,68,0.00,,,0.00,Wunderground v.1.15,2013-01-16 19:15:00,
2013-01-16 14:17:00,76.8,64.6,30.03,SSW,207,6.0,13.0,66,0.00,,,0.00,Wunderground v.1.15,2013-01-16 19:17:00,
2013-01-16 14:20:00,76.8,64.6,30.03,SSE,165,3.0,8.0,66,0.00,,,0.00,Wunderground v.1.15,2013-01-16 19:20:00,
2013-01-16 14:22:00,77.0,64.8,30.03,SE,146,5.0,11.0,66,0.00,,,0.00,Wunderground v.1.15,2013-01-16 19:22:00,
2013-01-16 14:25:00,77.1,64.9,30.03,SSW,208,4.0,12.0,66,0.00,,,0.00,Wunderground v.1.15,2013-01-16 19:25:00,
2013-01-16 14:27:00,77.1,64.9,30.03,SW,229,10.0,12.0,66,0.00,,,0.00,Wunderground v.1.15,2013-01-16 19:27:00,
2013-01-16 14:30:00,76.9,64.7,30.03,SW,217,5.0,10.0,66,0.00,,,0.00,Wunderground v.1.15,2013-01-16 19:30:00,
2013-01-16 14:31:00,76.8,64.6,30.03,SSW,197,6.0,10.0,66,0.00,,,0.00,Wunderground v.1.15,2013-01-16 19:31:00,
2013-01-16 14:32:00,76.8,65.0,30.03,South,176,6.0,10.0,67,0.00,,,0.00,Wunderground v.1.15,2013-01-16 19:32:00,
2013-01-16 14:35:00,77.0,64.8,30.03,SSW,210,9.0,10.0,66,0.00,,,0.00,Wunderground v.1.15,2013-01-16 19:35:00,
2013-01-16 14:36:00,77.0,64.8,30.03,SW,235,11.0,11.0,66,0.00,,,0.00,Wunderground v.1.15,2013-01-16 19:36:00,
2013-01-16 14:37:00,77.1,64.9,30.03,SSW,194,4.0,12.0,66,0.00,,,0.00,Wunderground v.1.15,2013-01-16 19:37:00,
2013-01-16 14:40:00,77.2,65.4,30.03,SSW,207,7.0,8.0,67,0.00,,,0.00,Wunderground v.1.15,2013-01-16 19:40:00,
2013-01-16 14:41:00,77.2,65.4,30.03,SSW,203,10.0,13.0,67,0.00,,,0.00,Wunderground v.1.15,2013-01-16 19:41:00,
2013-01-16 14:43:00,77.1,64.9,30.03,SW,228,8.0,13.0,66,0.00,,,0.00,Wunderground v.1.15,2013-01-16 19:43:00,
2013-01-16 14:46:00,77.1,64.9,30.03,SSW,210,5.0,13.0,66,0.00,,,0.00,Wunderground v.1.15,2013-01-16 19:46:00,
2013-01-16 14:48:00,77.1,64.9,30.03,SSW,200,7.0,13.0,66,0.00,,,0.00,Wunderground v.1.15,2013-01-16 19:48:00,
2013-01-16 14:51:00,77.0,64.8,30.03,South,187,7.0,8.0,66,0.00,,,0.00,Wunderground v.1.15,2013-01-16 19:51:00,
2013-01-16 14:53:00,77.0,64.8,30.03,SW,217,9.0,10.0,66,0.00,,,0.00,Wunderground v.1.15,2013-01-16 19:53:00,
2013-01-16 14:56:00,76.9,64.2,30.03,SW,220,12.0,12.0,65,0.00,,,0.00,Wunderground v.1.15,2013-01-16 19:56:00,
2013-01-16 14:58:00,76.9,64.7,30.03,South,184,8.0,12.0,66,0.00,,,0.00,Wunderground v.1.15,2013-01-16 19:58:00,
2013-01-16 15:01:00,77.1,64.9,30.02,WSW,239,7.0,10.0,66,0.00,,,0.00,Wunderground v.1.15,2013-01-16 20:01:00,
2013-01-16 15:03:00,77.2,64.5,30.02,SW,225,7.0,10.0,65,0.00,,,0.00,Wunderground v.1.15,2013-01-16 20:03:00,
2013-01-16 15:06:00,77.2,65.0,30.03,SSE,167,6.0,12.0,66,0.00,,,0.00,Wunderground v.1.15,2013-01-16 20:06:00,
2013-01-16 15:08:00,77.3,65.1,30.03,SW,231,4.0,12.0,66,0.00,,,0.00,Wunderground v.1.15,2013-01-16 20:08:00,
2013-01-16 15:11:00,77.4,65.1,30.03,South,187,5.0,10.0,66,0.00,,,0.00,Wunderground v.1.15,2013-01-16 20:11:00,
2013-01-16 15:13:00,77.4,65.1,30.02,SSE,166,7.0,10.0,66,0.00,,,0.00,Wunderground v.1.15,2013-01-16 20:13:00,
2013-01-16 15:17:00,77.3,64.6,30.03,SSW,211,10.0,10.0,65,0.00,,,0.00,Wunderground v.1.15,2013-01-16 20:17:00,
2013-01-16 15:18:00,77.2,64.5,30.03,SW,224,6.0,10.0,65,0.00,,,0.00,Wunderground v.1.15,2013-01-16 20:18:00,
2013-01-16 15:22:00,77.1,64.0,30.03,SW,231,6.0,13.0,64,0.00,,,0.00,Wunderground v.1.15,2013-01-16 20:22:00,
2013-01-16 15:23:00,77.0,63.9,30.02,South,190,8.0,13.0,64,0.00,,,0.00,Wunderground v.1.15,2013-01-16 20:23:00,
2013-01-16 15:27:00,77.1,64.4,30.02,SSE,149,4.0,13.0,65,0.00,,,0.00,Wunderground v.1.15,2013-01-16 20:27:00,
2013-01-16 15:28:00,77.2,64.5,30.03,SSE,166,4.0,13.0,65,0.00,,,0.00,Wunderground v.1.15,2013-01-16 20:28:00,
2013-01-16 15:29:00,77.3,64.6,30.03,South,191,6.0,13.0,65,0.00,,,0.00,Wunderground v.1.15,2013-01-16 20:29:00,
2013-01-16 15:32:00,77.4,65.6,30.03,SSW,211,4.0,10.0,67,0.00,,,0.00,Wunderground v.1.15,2013-01-16 20:32:00,
2013-01-16 15:34:00,77.3,65.9,30.03,South,170,3.0,10.0,68,0.00,,,0.00,Wunderground v.1.15,2013-01-16 20:34:00,
2013-01-16 15:37:00,77.5,66.1,30.03,SSE,156,7.0,11.0,68,0.00,,,0.00,Wunderground v.1.15,2013-01-16 20:37:00,
2013-01-16 15:39:00,77.4,66.8,30.03,SSW,198,4.0,11.0,70,0.00,,,0.00,Wunderground v.1.15,2013-01-16 20:39:00,
2013-01-16 15:42:00,77.4,66.8,30.03,SSE,153,6.0,12.0,70,0.00,,,0.00,Wunderground v.1.15,2013-01-16 20:42:00,
2013-01-16 15:43:00,77.3,66.7,30.03,SSE,151,8.0,12.0,70,0.00,,,0.00,Wunderground v.1.15,2013-01-16 20:43:00,
2013-01-16 15:44:00,77.2,66.7,30.03,SW,235,5.0,12.0,70,0.00,,,0.00,Wunderground v.1.15,2013-01-16 20:44:00,
2013-01-16 15:47:00,77.0,66.5,30.03,SE,141,6.0,12.0,70,0.00,,,0.00,Wunderground v.1.15,2013-01-16 20:47:00,
2013-01-16 15:48:00,77.0,66.5,30.03,SSE,158,8.0,12.0,70,0.00,,,0.00,Wunderground v.1.15,2013-01-16 20:48:00,
2013-01-16 15:49:00,76.9,66.8,30.03,South,181,5.0,12.0,71,0.00,,,0.00,Wunderground v.1.15,2013-01-16 20:49:00,
2013-01-16 15:52:00,76.9,67.2,30.03,South,175,6.0,8.0,72,0.00,,,0.00,Wunderground v.1.15,2013-01-16 20:52:00,
2013-01-16 15:53:00,76.9,67.2,30.03,South,179,5.0,8.0,72,0.00,,,0.00,Wunderground v.1.15,2013-01-16 20:53:00,
2013-01-16 15:54:00,76.8,66.3,30.03,SSW,208,6.0,10.0,70,0.00,,,0.00,Wunderground v.1.15,2013-01-16 20:54:00,
2013-01-16 15:57:00,76.7,67.0,30.03,SSW,202,7.0,10.0,72,0.00,,,0.00,Wunderground v.1.15,2013-01-16 20:57:00,
2013-01-16 15:58:00,76.6,66.9,30.03,SW,221,7.0,10.0,72,0.00,,,0.00,Wunderground v.1.15,2013-01-16 20:58:00,
2013-01-16 15:59:00,76.6,66.9,30.03,SW,232,5.0,11.0,72,0.00,,,0.00,Wunderground v.1.15,2013-01-16 20:59:00,
2013-01-16 16:00:00,76.6,66.9,30.03,South,191,4.0,6.0,72,0.00,,,0.00,Wunderground v.1.15,2013-01-16 21:00:00,
2013-01-16 16:02:00,76.7,67.4,30.03,SE,137,3.0,8.0,73,0.00,,,0.00,Wunderground v.1.15,2013-01-16 21:02:00,
2013-01-16 16:03:00,76.8,67.5,30.03,SSW,205,5.0,8.0,73,0.00,,,0.00,Wunderground v.1.15,2013-01-16 21:03:00,
2013-01-16 16:04:00,76.7,67.0,30.03,SW,214,8.0,11.0,72,0.00,,,0.00,Wunderground v.1.15,2013-01-16 21:04:00,
2013-01-16 16:05:00,76.7,67.0,30.03,South,184,6.0,11.0,72,0.00,,,0.00,Wunderground v.1.15,2013-01-16 21:05:00,
2013-01-16 16:07:00,76.6,66.9,30.03,South,181,11.0,13.0,72,0.00,,,0.00,Wunderground v.1.15,2013-01-16 21:07:00,
2013-01-16 16:08:00,76.6,66.9,30.03,SSW,195,8.0,13.0,72,0.00,,,0.00,Wunderground v.1.15,2013-01-16 21:08:00,
2013-01-16 16:09:00,76.4,66.7,30.03,South,187,5.0,13.0,72,0.00,,,0.00,Wunderground v.1.15,2013-01-16 21:09:00,
2013-01-16 16:10:00,76.4,67.1,30.03,South,187,4.0,8.0,73,0.00,,,0.00,Wunderground v.1.15,2013-01-16 21:10:00,
2013-01-16 16:13:00,76.2,66.9,30.03,SSW,211,9.0,12.0,73,0.00,,,0.00,Wunderground v.1.15,2013-01-16 21:13:00,
2013-01-16 16:14:00,76.2,66.9,30.03,South,187,4.0,12.0,73,0.00,,,0.00,Wunderground v.1.15,2013-01-16 21:14:00,
2013-01-16 16:15:00,76.2,66.9,30.03,WSW,248,7.0,12.0,73,0.00,,,0.00,Wunderground v.1.15,2013-01-16 21:15:00,
2013-01-16 16:18:00,76.1,67.2,30.03,SSW,199,9.0,12.0,74,0.00,,,0.00,Wunderground v.1.15,2013-01-16 21:18:00,
2013-01-16 16:20:00,76.1,67.6,30.03,SW,222,6.0,7.0,75,0.00,,,0.00,Wunderground v.1.15,2013-01-16 21:20:00,
2013-01-16 16:23:00,76.1,67.6,30.03,SW,229,8.0,11.0,75,0.00,,,0.00,Wunderground v.1.15,2013-01-16 21:23:00,
2013-01-16 16:25:00,76.0,67.5,30.03,SSE,157,5.0,11.0,75,0.00,,,0.00,Wunderground v.1.15,2013-01-16 21:25:00,
2013-01-16 16:28:00,76.3,67.8,30.03,SSW,203,3.0,11.0,75,0.00,,,0.00,Wunderground v.1.15,2013-01-16 21:28:00,
2013-01-16 16:29:00,76.3,67.8,30.03,SW,226,3.0,11.0,75,0.00,,,0.00,Wunderground v.1.15,2013-01-16 21:29:00,
2013-01-16 16:30:00,76.4,68.3,30.03,SW,233,7.0,7.0,76,0.00,,,0.00,Wunderground v.1.15,2013-01-16 21:30:00,
2013-01-16 16:33:00,76.4,67.9,30.03,SSW,210,8.0,11.0,75,0.00,,,0.00,Wunderground v.1.15,2013-01-16 21:33:00,
2013-01-16 16:34:00,76.3,67.8,30.03,SSW,199,8.0,11.0,75,0.00,,,0.00,Wunderground v.1.15,2013-01-16 21:34:00,
2013-01-16 16:35:00,76.2,67.3,30.03,South,191,6.0,11.0,74,0.00,,,0.00,Wunderground v.1.15,2013-01-16 21:35:00,
2013-01-16 16:36:00,76.2,67.7,30.03,SSW,205,9.0,11.0,75,0.00,,,0.00,Wunderground v.1.15,2013-01-16 21:36:00,
2013-01-16 16:39:00,76.0,67.5,30.03,SSW,210,8.0,11.0,75,0.00,,,0.00,Wunderground v.1.15,2013-01-16 21:39:00,
2013-01-16 16:40:00,75.9,67.4,30.03,SW,232,8.0,8.0,75,0.00,,,0.00,Wunderground v.1.15,2013-01-16 21:40:00,
2013-01-16 16:41:00,75.9,67.8,30.04,South,179,6.0,9.0,76,0.00,,,0.00,Wunderground v.1.15,2013-01-16 21:41:00,
2013-01-16 16:44:00,75.8,67.7,30.03,WSW,242,3.0,11.0,76,0.00,,,0.00,Wunderground v.1.15,2013-01-16 21:44:00,
2013-01-16 16:45:00,75.7,68.0,30.03,SSW,197,6.0,11.0,77,0.00,,,0.00,Wunderground v.1.15,2013-01-16 21:45:00,
2013-01-16 16:46:00,75.8,68.1,30.03,South,191,9.0,11.0,77,0.00,,,0.00,Wunderground v.1.15,2013-01-16 21:46:00,
2013-01-16 16:49:00,75.7,67.6,30.03,SSW,205,3.0,11.0,76,0.00,,,0.00,Wunderground v.1.15,2013-01-16 21:49:00,
2013-01-16 16:50:00,75.7,68.0,30.03,South,173,5.0,7.0,77,0.00,,,0.00,Wunderground v.1.15,2013-01-16 21:50:00,
2013-01-16 16:51:00,75.7,68.0,30.03,SSW,212,8.0,8.0,77,0.00,,,0.00,Wunderground v.1.15,2013-01-16 21:51:00,
2013-01-16 16:54:00,75.5,67.4,30.03,SW,235,5.0,11.0,76,0.00,,,0.00,Wunderground v.1.15,2013-01-16 21:54:00,
2013-01-16 16:55:00,75.5,67.4,30.03,WSW,241,6.0,11.0,76,0.00,,,0.00,Wunderground v.1.15,2013-01-16 21:55:00,
2013-01-16 16:56:00,75.4,67.3,30.03,SSW,201,8.0,11.0,76,0.00,,,0.00,Wunderground v.1.15,2013-01-16 21:56:00,
2013-01-16 16:59:00,75.3,67.2,30.03,SSW,200,6.0,11.0,76,0.00,,,0.00,Wunderground v.1.15,2013-01-16 21:59:00,
2013-01-16 17:00:00,75.4,67.7,30.03,South,187,4.0,6.0,77,0.00,,,0.00,Wunderground v.1.15,2013-01-16 22:00:00,
2013-01-16 17:01:00,75.4,67.7,30.03,WSW,238,6.0,6.0,77,0.00,,,0.00,Wunderground v.1.15,2013-01-16 22:01:00,
2013-01-16 17:04:00,75.4,67.7,30.03,South,187,5.0,10.0,77,0.00,,,0.00,Wunderground v.1.15,2013-01-16 22:04:00,
2013-01-16 17:05:00,75.4,67.7,30.03,SW,221,7.0,10.0,77,0.00,,,0.00,Wunderground v.1.15,2013-01-16 22:05:00,
2013-01-16 17:06:00,75.3,67.6,30.03,South,179,8.0,10.0,77,0.00,,,0.00,Wunderground v.1.15,2013-01-16 22:06:00,
2013-01-16 17:09:00,75.2,67.5,30.03,SSW,197,4.0,10.0,77,0.00,,,0.00,Wunderground v.1.15,2013-01-16 22:09:00,
2013-01-16 17:10:00,75.2,67.5,30.03,SSW,207,4.0,5.0,77,0.00,,,0.00,Wunderground v.1.15,2013-01-16 22:10:00,
2013-01-16 17:12:00,75.2,67.5,30.03,South,169,4.0,7.0,77,0.00,,,0.00,Wunderground v.1.15,2013-01-16 22:12:00,
2013-01-16 17:14:00,75.1,67.4,30.04,SSW,205,5.0,8.0,77,0.00,,,0.00,Wunderground v.1.15,2013-01-16 22:14:00,
2013-01-16 17:15:00,75.1,67.4,30.04,SSW,203,4.0,8.0,77,0.00,,,0.00,Wunderground v.1.15,2013-01-16 22:15:00,
2013-01-16 17:17:00,75.1,67.4,30.04,SW,216,6.0,8.0,77,0.00,,,0.00,Wunderground v.1.15,2013-01-16 22:17:00,
2013-01-16 17:20:00,75.0,67.7,30.04,SW,221,5.0,5.0,78,0.00,,,0.00,Wunderground v.1.15,2013-01-16 22:20:00,
2013-01-16 17:23:00,74.9,67.6,30.04,SSW,195,5.0,7.0,78,0.00,,,0.00,Wunderground v.1.15,2013-01-16 22:23:00,
2013-01-16 17:25:00,74.9,67.6,30.04,SSE,150,4.0,8.0,78,0.00,,,0.00,Wunderground v.1.15,2013-01-16 22:25:00,
2013-01-16 17:26:00,74.9,67.6,30.04,South,170,5.0,8.0,78,0.00,,,0.00,Wunderground v.1.15,2013-01-16 22:26:00,
2013-01-16 17:27:00,74.8,67.5,30.03,SW,235,3.0,8.0,78,0.00,,,0.00,Wunderground v.1.15,2013-01-16 22:27:00,
2013-01-16 17:30:00,74.7,67.4,30.04,SW,215,4.0,5.0,78,0.00,,,0.00,Wunderground v.1.15,2013-01-16 22:30:00,
2013-01-16 17:31:00,74.7,67.4,30.04,SE,124,3.0,5.0,78,0.00,,,0.00,Wunderground v.1.15,2013-01-16 22:31:00,
2013-01-16 17:33:00,74.6,67.3,30.04,SSE,160,3.0,5.0,78,0.00,,,0.00,Wunderground v.1.15,2013-01-16 22:33:00,
2013-01-16 17:35:00,74.6,67.3,30.04,SW,219,2.0,5.0,78,0.00,,,0.00,Wunderground v.1.15,2013-01-16 22:35:00,
2013-01-16 17:36:00,74.6,67.3,30.04,SW,214,1.0,5.0,78,0.00,,,0.00,Wunderground v.1.15,2013-01-16 22:36:00,
2013-01-16 17:38:00,74.5,67.2,30.04,SE,145,2.0,7.0,78,0.00,,,0.00,Wunderground v.1.15,2013-01-16 22:38:00,
2013-01-16 17:40:00,74.4,67.5,30.04,SSE,159,3.0,6.0,79,0.00,,,0.00,Wunderground v.1.15,2013-01-16 22:40:00,
2013-01-16 17:41:00,74.4,67.5,30.04,South,181,1.0,6.0,79,0.00,,,0.00,Wunderground v.1.15,2013-01-16 22:41:00,
2013-01-16 17:43:00,74.3,67.4,30.04,SE,139,6.0,6.0,79,0.00,,,0.00,Wunderground v.1.15,2013-01-16 22:43:00,
2013-01-16 17:45:00,74.1,67.2,30.04,SW,214,2.0,7.0,79,0.00,,,0.00,Wunderground v.1.15,2013-01-16 22:45:00,
2013-01-16 17:46:00,74.0,67.1,30.04,South,187,2.0,7.0,79,0.00,,,0.00,Wunderground v.1.15,2013-01-16 22:46:00,
2013-01-16 17:48:00,74.0,67.4,30.04,SSE,168,2.0,7.0,80,0.00,,,0.00,Wunderground v.1.15,2013-01-16 22:48:00,
2013-01-16 17:50:00,73.8,67.2,30.04,SSE,165,2.0,3.0,80,0.00,,,0.00,Wunderground v.1.15,2013-01-16 22:50:00,
2013-01-16 17:51:00,73.8,67.2,30.04,SSE,162,5.0,5.0,80,0.00,,,0.00,Wunderground v.1.15,2013-01-16 22:51:00,
2013-01-16 17:53:00,73.6,67.4,30.04,SSW,208,2.0,6.0,81,0.00,,,0.00,Wunderground v.1.15,2013-01-16 22:53:00,
2013-01-16 17:56:00,73.4,67.2,30.04,SSW,201,3.0,6.0,81,0.00,,,0.00,Wunderground v.1.15,2013-01-16 22:56:00,
2013-01-16 17:58:00,73.2,67.4,30.04,SE,139,0.0,6.0,82,0.00,,,0.00,Wunderground v.1.15,2013-01-16 22:58:00,
2013-01-16 18:00:00,73.4,67.6,30.04,SSE,158,2.0,-999.0,82,0.00,,,0.00,Wunderground v.1.15,2013-01-16 23:00:00,
2013-01-16 18:01:00,73.0,67.2,30.04,South,176,4.0,6.0,82,0.00,,,0.00,Wunderground v.1.15,2013-01-16 23:01:00,
2013-01-16 18:02:00,72.9,67.1,30.04,SE,143,3.0,7.0,82,0.00,,,0.00,Wunderground v.1.15,2013-01-16 23:02:00,
2013-01-16 18:04:00,72.7,67.2,30.04,South,190,1.0,7.0,83,0.00,,,0.00,Wunderground v.1.15,2013-01-16 23:04:00,
2013-01-16 18:05:00,72.6,67.5,30.04,South,180,2.0,-999.0,84,0.00,,,0.00,Wunderground v.1.15,2013-01-16 23:05:00,
2013-01-16 18:06:00,72.6,67.1,30.04,SSE,152,1.0,7.0,83,0.00,,,0.00,Wunderground v.1.15,2013-01-16 23:06:00,
2013-01-16 18:07:00,72.5,67.0,30.04,SSE,153,1.0,7.0,83,0.00,,,0.00,Wunderground v.1.15,2013-01-16 23:07:00,
2013-01-16 18:09:00,72.4,67.3,30.04,SSW,200,2.0,7.0,84,0.00,,,0.00,Wunderground v.1.15,2013-01-16 23:09:00,
2013-01-16 18:10:00,72.6,67.5,30.04,South,180,2.0,-999.0,84,0.00,,,0.00,Wunderground v.1.15,2013-01-16 23:10:00,
2013-01-16 18:15:00,72.0,67.2,30.04,SSW,203,1.0,-999.0,85,0.00,,,0.00,Wunderground v.1.15,2013-01-16 23:15:00,
2013-01-16 18:20:00,72.0,67.2,30.04,SSW,203,1.0,-999.0,85,0.00,,,0.00,Wunderground v.1.15,2013-01-16 23:20:00,
2013-01-16 18:25:00,71.6,67.2,30.04,SSW,203,2.0,-999.0,86,0.00,,,0.00,Wunderground v.1.15,2013-01-16 23:25:00,
2013-01-16 18:30:00,71.6,67.2,30.04,SSW,203,2.0,-999.0,86,0.00,,,0.00,Wunderground v.1.15,2013-01-16 23:30:00,
2013-01-16 18:35:00,71.3,67.2,30.04,SSW,203,1.0,-999.0,87,0.00,,,0.00,Wunderground v.1.15,2013-01-16 23:35:00,
2013-01-16 18:40:00,71.3,67.2,30.04,SSW,203,1.0,-999.0,87,0.00,,,0.00,Wunderground v.1.15,2013-01-16 23:40:00,
2013-01-16 18:45:00,71.0,66.9,30.04,South,180,1.0,-999.0,87,0.00,,,0.00,Wunderground v.1.15,2013-01-16 23:45:00,
2013-01-16 18:50:00,71.0,66.9,30.04,South,180,1.0,-999.0,87,0.00,,,0.00,Wunderground v.1.15,2013-01-16 23:50:00,
2013-01-16 18:55:00,70.6,66.9,30.04,South,180,0.0,-999.0,88,0.00,,,0.00,Wunderground v.1.15,2013-01-16 23:55:00,
2013-01-16 19:00:00,70.6,66.9,30.04,South,180,0.0,-999.0,88,0.00,,,0.00,Wunderground v.1.15,2013-01-17 00:00:00,
2013-01-16 19:05:00,70.2,66.8,30.05,SSW,203,1.0,-999.0,89,0.00,,,0.00,Wunderground v.1.15,2013-01-17 00:05:00,
2013-01-16 19:10:00,70.2,66.8,30.05,SSW,203,1.0,-999.0,89,0.00,,,0.00,Wunderground v.1.15,2013-01-17 00:10:00,
2013-01-16 19:15:00,69.9,66.8,30.05,South,180,0.0,-999.0,90,0.00,,,0.00,Wunderground v.1.15,2013-01-17 00:15:00,
2013-01-16 19:20:00,69.9,66.8,30.05,South,180,0.0,-999.0,90,0.00,,,0.00,Wunderground v.1.15,2013-01-17 00:20:00,
2013-01-16 19:25:00,69.7,66.6,30.05,SSW,203,0.0,-999.0,90,0.00,,,0.00,Wunderground v.1.15,2013-01-17 00:25:00,
2013-01-16 19:30:00,69.7,66.6,30.05,SSW,203,0.0,-999.0,90,0.00,,,0.00,Wunderground v.1.15,2013-01-17 00:30:00,
2013-01-16 19:35:00,69.5,66.8,30.05,SSW,203,0.0,-999.0,91,0.00,,,0.00,Wunderground v.1.15,2013-01-17 00:35:00,
2013-01-16 19:40:00,69.5,66.8,30.05,SSW,203,0.0,-999.0,91,0.00,,,0.00,Wunderground v.1.15,2013-01-17 00:40:00,
2013-01-16 19:45:00,69.4,66.7,30.05,South,180,1.0,-999.0,91,0.00,,,0.00,Wunderground v.1.15,2013-01-17 00:45:00,
2013-01-16 19:50:00,69.4,66.7,30.05,South,180,1.0,-999.0,91,0.00,,,0.00,Wunderground v.1.15,2013-01-17 00:50:00,
2013-01-16 19:55:00,69.2,66.5,30.06,SSE,158,1.0,-999.0,91,0.00,,,0.00,Wunderground v.1.15,2013-01-17 00:55:00,
2013-01-16 20:00:00,69.2,66.5,30.06,SSE,158,1.0,-999.0,91,0.00,,,0.00,Wunderground v.1.15,2013-01-17 01:00:00,
2013-01-16 20:05:00,68.9,66.5,30.05,SSE,158,0.0,-999.0,92,0.00,,,0.00,Wunderground v.1.15,2013-01-17 01:05:00,
2013-01-16 20:10:00,68.9,66.5,30.05,SSE,158,0.0,-999.0,92,0.00,,,0.00,Wunderground v.1.15,2013-01-17 01:10:00,
2013-01-16 20:15:00,68.8,66.7,30.05,South,180,1.0,-999.0,93,0.00,,,0.00,Wunderground v.1.15,2013-01-17 01:15:00,
2013-01-16 20:20:00,68.8,66.7,30.05,South,180,1.0,-999.0,93,0.00,,,0.00,Wunderground v.1.15,2013-01-17 01:20:00,
2013-01-16 20:25:00,68.7,66.6,30.06,SSW,203,1.0,-999.0,93,0.00,,,0.00,Wunderground v.1.15,2013-01-17 01:25:00,
2013-01-16 20:30:00,68.7,66.6,30.06,SSW,203,1.0,-999.0,93,0.00,,,0.00,Wunderground v.1.15,2013-01-17 01:30:00,
2013-01-16 20:35:00,68.6,66.5,30.05,South,180,1.0,-999.0,93,0.00,,,0.00,Wunderground v.1.15,2013-01-17 01:35:00,
2013-01-16 20:40:00,68.6,66.5,30.05,South,180,1.0,-999.0,93,0.00,,,0.00,Wunderground v.1.15,2013-01-17 01:40:00,
2013-01-16 20:45:00,68.5,66.4,30.05,SSW,203,1.0,-999.0,93,0.00,,,0.00,Wunderground v.1.15,2013-01-17 01:45:00,
2013-01-16 20:50:00,68.5,66.4,30.05,SSW,203,1.0,-999.0,93,0.00,,,0.00,Wunderground v.1.15,2013-01-17 01:50:00,
2013-01-16 20:55:00,68.6,66.5,30.05,SSW,203,2.0,-999.0,93,0.00,,,0.00,Wunderground v.1.15,2013-01-17 01:55:00,
2013-01-16 21:00:00,68.6,66.5,30.05,SSW,203,2.0,-999.0,93,0.00,,,0.00,Wunderground v.1.15,2013-01-17 02:00:00,
2013-01-16 21:05:00,68.6,66.5,30.05,SE,135,1.0,-999.0,93,0.00,,,0.00,Wunderground v.1.15,2013-01-17 02:05:00,
2013-01-16 21:10:00,68.6,66.5,30.05,SE,135,1.0,-999.0,93,0.00,,,0.00,Wunderground v.1.15,2013-01-17 02:10:00,
2013-01-16 21:15:00,68.7,66.6,30.05,SE,135,1.0,-999.0,93,0.00,,,0.00,Wunderground v.1.15,2013-01-17 02:15:00,
2013-01-16 21:20:00,68.7,66.6,30.05,SE,135,1.0,-999.0,93,0.00,,,0.00,Wunderground v.1.15,2013-01-17 02:20:00,
2013-01-16 21:25:00,68.6,66.5,30.05,SSE,158,0.0,-999.0,93,0.00,,,0.00,Wunderground v.1.15,2013-01-17 02:25:00,
2013-01-16 21:30:00,68.6,66.5,30.05,SSE,158,0.0,-999.0,93,0.00,,,0.00,Wunderground v.1.15,2013-01-17 02:30:00,
2013-01-16 21:35:00,68.9,66.8,30.05,SW,225,1.0,-999.0,93,0.00,,,0.00,Wunderground v.1.15,2013-01-17 02:35:00,
2013-01-16 21:40:00,68.9,66.8,30.05,SW,225,1.0,-999.0,93,0.00,,,0.00,Wunderground v.1.15,2013-01-17 02:40:00,
2013-01-16 21:45:00,68.9,66.8,30.05,South,180,0.0,-999.0,93,0.00,,,0.00,Wunderground v.1.15,2013-01-17 02:45:00,
2013-01-16 21:50:00,68.9,66.8,30.05,South,180,0.0,-999.0,93,0.00,,,0.00,Wunderground v.1.15,2013-01-17 02:50:00,
2013-01-16 21:55:00,68.5,66.4,30.05,SW,225,0.0,-999.0,93,0.00,,,0.00,Wunderground v.1.15,2013-01-17 02:55:00,
2013-01-16 22:00:00,68.5,66.4,30.05,SW,225,0.0,-999.0,93,0.00,,,0.00,Wunderground v.1.15,2013-01-17 03:00:00,
2013-01-16 22:05:00,68.5,66.7,30.05,West,270,1.0,-999.0,94,0.00,,,0.00,Wunderground v.1.15,2013-01-17 03:05:00,
2013-01-16 22:10:00,68.5,66.7,30.05,West,270,1.0,-999.0,94,0.00,,,0.00,Wunderground v.1.15,2013-01-17 03:10:00,
2013-01-16 22:15:00,68.5,66.4,30.05,WSW,248,0.0,-999.0,93,0.00,,,0.00,Wunderground v.1.15,2013-01-17 03:15:00,
2013-01-16 22:25:00,67.9,65.8,30.05,WSW,253,0.0,7.0,93,0.00,,,0.00,Wunderground v.1.15,2013-01-17 03:25:00,
2013-01-16 22:26:00,67.9,65.8,30.05,SW,231,0.0,7.0,93,0.00,,,0.00,Wunderground v.1.15,2013-01-17 03:26:00,
2013-01-16 22:35:00,68.3,66.5,30.05,SSW,205,0.0,2.0,94,0.00,,,0.00,Wunderground v.1.15,2013-01-17 03:35:00,
2013-01-16 22:40:00,68.4,66.6,30.05,South,188,1.0,2.0,94,0.00,,,0.00,Wunderground v.1.15,2013-01-17 03:40:00,
2013-01-16 22:45:00,68.3,66.5,30.05,SE,146,1.0,1.0,94,0.00,,,0.00,Wunderground v.1.15,2013-01-17 03:45:00,
2013-01-16 22:55:00,68.3,66.5,30.05,South,174,0.0,0.0,94,0.00,,,0.00,Wunderground v.1.15,2013-01-17 03:55:00,
2013-01-16 23:00:00,68.4,66.9,30.05,SW,217,0.0,1.0,95,0.00,,,0.00,Wunderground v.1.15,2013-01-17 04:00:00,
2013-01-16 23:10:00,68.6,67.1,30.05,WSW,245,1.0,2.0,95,0.00,,,0.00,Wunderground v.1.15,2013-01-17 04:10:00,
2013-01-16 23:15:00,68.6,67.1,30.05,WSW,242,1.0,2.0,95,0.00,,,0.00,Wunderground v.1.15,2013-01-17 04:15:00,
2013-01-16 23:20:00,68.5,66.7,30.05,WSW,242,1.0,1.0,94,0.00,,,0.00,Wunderground v.1.15,2013-01-17 04:20:00,
2013-01-16 23:30:00,68.3,66.8,30.05,SW,230,0.0,0.0,95,0.00,,,0.00,Wunderground v.1.15,2013-01-17 04:30:00,
2013-01-16 23:35:00,68.3,66.8,30.05,SW,231,0.0,0.0,95,0.00,,,0.00,Wunderground v.1.15,2013-01-17 04:35:00,
2013-01-16 23:40:00,68.3,66.8,30.05,SW,231,0.0,0.0,95,0.00,,,0.00,Wunderground v.1.15,2013-01-17 04:40:00,
2013-01-16 23:45:00,68.2,66.7,30.05,SW,231,0.0,0.0,95,0.00,,,0.00,Wunderground v.1.15,2013-01-17 04:45:00,
2013-01-16 23:50:00,68.2,66.7,30.05,SW,231,0.0,0.0,95,0.00,,,0.00,Wunderground v.1.15,2013-01-17 04:50:00,
2013-01-16 23:55:00,68.0,66.5,30.05,SW,230,0.0,0.0,95,0.00,,,0.00,Wunderground v.1.15,2013-01-17 04:55:00,